LKE9976 ZWWW-ZPPP
Flight info
| Callsign | LKE9976 |
|---|---|
| Flight time | N/A |
| Altitude | 33100 |
| Route | FKG0 FKG W192 LUPRO V116 ESDEX W192 DUMIN Y1 LUSMA/K0859S1070 Y1 MEPEP Y2 LUVAR L888 SANLI/K0869S1040 L888 PEXUN/K0867S1100 L888 NIVUX/K0878S1070 L888 UPGED/K0874S1100 W162 BUBSU/K0872S1070 W146 GULOT GULOJ1 |
| Aircraft | B738/M-SDE2E3FGHIRWXY/LB1 |
Departure
| Time | 2026-04-21 23:27 |
|---|---|
| Airport | Ürümqi Tianshan International Airport (ZWWW) |
Arrival
| Time | N/A |
|---|---|
| Airport | Kunming Changshui International Airport (ZPPP) |
| Time | Latitude | Longitude | Altitude | Speed | Heading |
|---|---|---|---|---|---|
| 2026-04-21 23:03 | 43.91903 | 87.47126 | 2135 ft | 0 kts | 165° |
| 2026-04-21 23:16 | 43.91904 | 87.47126 | 2134 ft | 1 kts | 165° |
| 2026-04-21 23:16 | 43.91917 | 87.47121 | 2134 ft | 2 kts | 164° |
| 2026-04-21 23:17 | 43.91932 | 87.47116 | 2134 ft | 2 kts | 165° |
| 2026-04-21 23:17 | 43.91946 | 87.47111 | 2134 ft | 2 kts | 165° |
| 2026-04-21 23:17 | 43.91960 | 87.47105 | 2134 ft | 2 kts | 165° |
| 2026-04-21 23:17 | 43.91975 | 87.47100 | 2134 ft | 2 kts | 165° |
| 2026-04-21 23:18 | 43.91985 | 87.47096 | 2134 ft | 1 kts | 165° |
| 2026-04-21 23:18 | 43.91994 | 87.47088 | 2134 ft | 1 kts | 109° |
| 2026-04-21 23:18 | 43.91994 | 87.47076 | 2134 ft | 1 kts | 71° |
| 2026-04-21 23:18 | 43.91992 | 87.47068 | 2134 ft | 0 kts | 71° |
| 2026-04-21 23:20 | 43.91998 | 87.47092 | 2134 ft | 10 kts | 71° |
| 2026-04-21 23:20 | 43.92027 | 87.47229 | 2134 ft | 14 kts | 75° |
| 2026-04-21 23:21 | 43.92051 | 87.47360 | 2134 ft | 13 kts | 74° |
| 2026-04-21 23:21 | 43.92075 | 87.47478 | 2134 ft | 11 kts | 73° |
| 2026-04-21 23:21 | 43.92097 | 87.47581 | 2134 ft | 10 kts | 73° |
| 2026-04-21 23:21 | 43.92124 | 87.47668 | 2134 ft | 9 kts | 47° |
| 2026-04-21 23:22 | 43.92178 | 87.47704 | 2134 ft | 9 kts | 18° |
| 2026-04-21 23:22 | 43.92243 | 87.47819 | 2134 ft | 20 kts | 73° |
| 2026-04-21 23:22 | 43.92279 | 87.48006 | 2134 ft | 19 kts | 76° |
| 2026-04-21 23:22 | 43.92313 | 87.48183 | 2134 ft | 18 kts | 68° |
| 2026-04-21 23:23 | 43.92355 | 87.48340 | 2134 ft | 16 kts | 71° |
| 2026-04-21 23:23 | 43.92390 | 87.48486 | 2134 ft | 15 kts | 74° |
| 2026-04-21 23:23 | 43.92417 | 87.48621 | 2134 ft | 13 kts | 74° |
| 2026-04-21 23:23 | 43.92442 | 87.48747 | 2134 ft | 14 kts | 75° |
| 2026-04-21 23:24 | 43.92480 | 87.48922 | 2134 ft | 22 kts | 71° |
| 2026-04-21 23:24 | 43.92530 | 87.49125 | 2134 ft | 21 kts | 79° |
| 2026-04-21 23:24 | 43.92572 | 87.49353 | 2134 ft | 19 kts | 72° |
| 2026-04-21 23:24 | 43.92643 | 87.49451 | 2134 ft | 19 kts | 357° |
| 2026-04-21 23:25 | 43.92755 | 87.49406 | 2134 ft | 0 kts | 345° |
| 2026-04-21 23:25 | 43.92816 | 87.49372 | 2134 ft | 20 kts | 314° |
| 2026-04-21 23:26 | 43.92804 | 87.49202 | 2134 ft | 0 kts | 252° |
| 2026-04-21 23:26 | 43.92801 | 87.49188 | 2134 ft | 5 kts | 252° |
| 2026-04-21 23:26 | 43.92706 | 87.48804 | 2134 ft | 75 kts | 258° |
| 2026-04-21 23:27 | 43.92483 | 87.47828 | 2134 ft | 134 kts | 256° |
| 2026-04-21 23:27 | 43.92179 | 87.46373 | 2217 ft | 174 kts | 252° |
| 2026-04-21 23:27 | 43.91884 | 87.44769 | 2794 ft | 180 kts | 254° |
| 2026-04-21 23:27 | 43.91557 | 87.43070 | 3448 ft | 185 kts | 251° |
| 2026-04-21 23:28 | 43.91159 | 87.41348 | 3967 ft | 193 kts | 250° |
| 2026-04-21 23:28 | 43.90740 | 87.39520 | 4293 ft | 208 kts | 252° |
| 2026-04-21 23:28 | 43.90303 | 87.37512 | 4589 ft | 227 kts | 252° |
| 2026-04-21 23:28 | 43.89843 | 87.35351 | 4968 ft | 243 kts | 253° |
| 2026-04-21 23:29 | 43.89351 | 87.33048 | 5461 ft | 254 kts | 252° |
| 2026-04-21 23:29 | 43.88841 | 87.30682 | 6112 ft | 257 kts | 253° |
| 2026-04-21 23:29 | 43.88472 | 87.28249 | 6751 ft | 261 kts | 266° |
| 2026-04-21 23:29 | 43.88735 | 87.25806 | 7406 ft | 262 kts | 293° |
| 2026-04-21 23:30 | 43.89735 | 87.23750 | 8081 ft | 261 kts | 315° |
| 2026-04-21 23:30 | 43.91152 | 87.22176 | 8778 ft | 261 kts | 330° |
| 2026-04-21 23:30 | 43.92809 | 87.21223 | 9468 ft | 261 kts | 343° |
| 2026-04-21 23:30 | 43.94562 | 87.20561 | 10132 ft | 262 kts | 345° |
| 2026-04-21 23:31 | 43.96314 | 87.19920 | 10748 ft | 265 kts | 343° |
| 2026-04-21 23:31 | 43.98129 | 87.19212 | 11148 ft | 277 kts | 342° |
| 2026-04-21 23:31 | 44.00038 | 87.18432 | 11473 ft | 292 kts | 342° |
| 2026-04-21 23:31 | 44.02034 | 87.17598 | 11841 ft | 306 kts | 342° |
| 2026-04-21 23:32 | 44.04099 | 87.16732 | 12172 ft | 320 kts | 342° |
| 2026-04-21 23:32 | 44.06304 | 87.15820 | 12470 ft | 336 kts | 343° |
| 2026-04-21 23:32 | 44.08645 | 87.15166 | 12773 ft | 353 kts | 353° |
| 2026-04-21 23:32 | 44.11143 | 87.15264 | 13045 ft | 370 kts | 8° |
| 2026-04-21 23:33 | 44.13653 | 87.16286 | 13322 ft | 387 kts | 21° |
| 2026-04-21 23:33 | 44.16097 | 87.18090 | 13569 ft | 405 kts | 31° |
| 2026-04-21 23:33 | 44.18264 | 87.20664 | 13892 ft | 420 kts | 47° |
| 2026-04-21 23:33 | 44.19862 | 87.24096 | 14518 ft | 426 kts | 62° |
| 2026-04-21 23:34 | 44.21103 | 87.27842 | 15139 ft | 431 kts | 65° |
| 2026-04-21 23:34 | 44.22297 | 87.31718 | 15760 ft | 436 kts | 65° |
| 2026-04-21 23:34 | 44.23469 | 87.35608 | 16362 ft | 440 kts | 65° |
| 2026-04-21 23:34 | 44.24647 | 87.39532 | 16957 ft | 445 kts | 65° |
| 2026-04-21 23:35 | 44.25849 | 87.43520 | 17573 ft | 448 kts | 65° |
| 2026-04-21 23:35 | 44.27052 | 87.47490 | 18177 ft | 451 kts | 65° |
| 2026-04-21 23:35 | 44.28286 | 87.51549 | 18743 ft | 456 kts | 65° |
| 2026-04-21 23:35 | 44.29533 | 87.55637 | 19310 ft | 460 kts | 65° |
| 2026-04-21 23:36 | 44.30794 | 87.59746 | 19920 ft | 463 kts | 64° |
| 2026-04-21 23:36 | 44.32137 | 87.63811 | 20458 ft | 466 kts | 62° |
| 2026-04-21 23:36 | 44.33753 | 87.67743 | 21010 ft | 468 kts | 54° |
| 2026-04-21 23:36 | 44.35778 | 87.71313 | 21518 ft | 470 kts | 46° |
| 2026-04-21 23:37 | 44.38016 | 87.74641 | 22020 ft | 473 kts | 45° |
| 2026-04-21 23:37 | 44.40145 | 87.78198 | 22499 ft | 480 kts | 52° |
| 2026-04-21 23:37 | 44.41885 | 87.82141 | 22978 ft | 485 kts | 61° |
| 2026-04-21 23:37 | 44.43223 | 87.86534 | 23460 ft | 491 kts | 70° |
| 2026-04-21 23:38 | 44.44080 | 87.91156 | 23939 ft | 496 kts | 78° |
| 2026-04-21 23:38 | 44.44433 | 87.96011 | 24423 ft | 500 kts | 88° |
| 2026-04-21 23:38 | 44.44241 | 88.00848 | 25142 ft | 498 kts | 97° |
| 2026-04-21 23:38 | 44.43538 | 88.05524 | 25836 ft | 495 kts | 106° |
| 2026-04-21 23:39 | 44.42345 | 88.09998 | 26435 ft | 493 kts | 115° |
| 2026-04-21 23:39 | 44.40669 | 88.14178 | 27078 ft | 490 kts | 124° |
| 2026-04-21 23:39 | 44.38577 | 88.17908 | 27691 ft | 486 kts | 134° |
| 2026-04-21 23:39 | 44.36151 | 88.21079 | 28278 ft | 482 kts | 143° |
| 2026-04-21 23:40 | 44.33408 | 88.23772 | 28790 ft | 480 kts | 149° |
| 2026-04-21 23:40 | 44.30561 | 88.26163 | 29333 ft | 478 kts | 151° |
| 2026-04-21 23:40 | 44.27727 | 88.28535 | 29857 ft | 477 kts | 150° |
| 2026-04-21 23:40 | 44.24946 | 88.31064 | 30360 ft | 476 kts | 147° |
| 2026-04-21 23:41 | 44.22286 | 88.33775 | 30853 ft | 476 kts | 144° |
| 2026-04-21 23:41 | 44.19690 | 88.36721 | 31304 ft | 477 kts | 141° |
| 2026-04-21 23:41 | 44.17246 | 88.39741 | 31753 ft | 477 kts | 139° |
| 2026-04-21 23:41 | 44.14841 | 88.42902 | 32179 ft | 477 kts | 137° |
| 2026-04-21 23:42 | 44.12471 | 88.46149 | 32607 ft | 476 kts | 136° |
| 2026-04-21 23:42 | 44.10148 | 88.49416 | 33034 ft | 475 kts | 135° |
| 2026-04-21 23:42 | 44.05519 | 88.56039 | 33134 ft | 477 kts | 135° |
| 2026-04-21 23:43 | 44.00939 | 88.62646 | 33143 ft | 473 kts | 134° |
| 2026-04-21 23:43 | 43.96417 | 88.69155 | 33153 ft | 473 kts | 135° |
| 2026-04-21 23:44 | 43.91867 | 88.75681 | 33167 ft | 475 kts | 135° |
| 2026-04-21 23:44 | 43.87261 | 88.82268 | 33172 ft | 474 kts | 135° |
| 2026-04-21 23:45 | 43.80381 | 88.92065 | 33179 ft | 475 kts | 135° |
| 2026-04-21 23:46 | 43.75830 | 88.98525 | 33175 ft | 474 kts | 135° |
| 2026-04-21 23:46 | 43.71216 | 89.05057 | 33171 ft | 477 kts | 135° |
| 2026-04-21 23:47 | 43.66641 | 89.11523 | 33173 ft | 475 kts | 135° |
| 2026-04-21 23:47 | 43.62049 | 89.18002 | 33177 ft | 475 kts | 135° |
| 2026-04-21 23:48 | 43.57476 | 89.24435 | 33187 ft | 475 kts | 135° |
| 2026-04-21 23:48 | 43.52872 | 89.30895 | 33193 ft | 474 kts | 135° |
| 2026-04-21 23:49 | 43.48245 | 89.37371 | 33200 ft | 476 kts | 134° |
| 2026-04-21 23:49 | 43.43646 | 89.43797 | 33180 ft | 476 kts | 134° |
| 2026-04-21 23:50 | 43.39039 | 89.50218 | 33170 ft | 476 kts | 134° |
| 2026-04-21 23:50 | 43.34415 | 89.56646 | 33172 ft | 477 kts | 134° |
| 2026-04-21 23:51 | 43.29759 | 89.63105 | 33160 ft | 476 kts | 134° |
| 2026-04-21 23:51 | 43.25110 | 89.69540 | 33156 ft | 476 kts | 135° |
| 2026-04-21 23:52 | 43.20461 | 89.75967 | 33147 ft | 475 kts | 135° |
| 2026-04-21 23:52 | 43.15820 | 89.82367 | 33146 ft | 475 kts | 134° |
| 2026-04-21 23:53 | 43.11205 | 89.88703 | 33137 ft | 475 kts | 134° |
| 2026-04-21 23:53 | 43.06557 | 89.95074 | 33128 ft | 476 kts | 134° |
| 2026-04-21 23:54 | 43.01905 | 90.01440 | 33111 ft | 475 kts | 134° |
| 2026-04-21 23:54 | 42.97236 | 90.07812 | 33106 ft | 477 kts | 134° |
| 2026-04-21 23:55 | 42.92576 | 90.14156 | 33109 ft | 477 kts | 134° |
| 2026-04-21 23:55 | 42.87894 | 90.20519 | 33110 ft | 477 kts | 134° |
| 2026-04-21 23:56 | 42.83165 | 90.26934 | 33109 ft | 476 kts | 134° |
| 2026-04-21 23:56 | 42.78487 | 90.33265 | 33113 ft | 476 kts | 134° |
| 2026-04-21 23:57 | 42.73772 | 90.39625 | 33110 ft | 476 kts | 134° |
| 2026-04-21 23:57 | 42.69078 | 90.45943 | 33113 ft | 475 kts | 134° |
| 2026-04-21 23:58 | 42.64357 | 90.52284 | 33115 ft | 477 kts | 134° |
| 2026-04-21 23:58 | 42.59624 | 90.58630 | 33114 ft | 478 kts | 134° |
| 2026-04-21 23:59 | 42.54920 | 90.64924 | 33120 ft | 478 kts | 134° |
| 2026-04-21 23:59 | 42.50185 | 90.71244 | 33128 ft | 477 kts | 135° |
| 2026-04-22 00:00 | 42.45466 | 90.77531 | 33132 ft | 476 kts | 135° |
| 2026-04-22 00:00 | 42.40736 | 90.83814 | 33140 ft | 475 kts | 135° |
| 2026-04-22 00:01 | 42.36027 | 90.90055 | 33140 ft | 476 kts | 135° |
| 2026-04-22 00:01 | 42.31273 | 90.96345 | 33147 ft | 478 kts | 134° |
| 2026-04-22 00:02 | 42.26536 | 91.02597 | 33145 ft | 477 kts | 135° |
| 2026-04-22 00:02 | 42.21784 | 91.08849 | 33156 ft | 476 kts | 135° |
| 2026-04-22 00:03 | 42.17074 | 91.15035 | 33156 ft | 477 kts | 135° |
| 2026-04-22 00:03 | 42.12341 | 91.21243 | 33158 ft | 477 kts | 134° |
| 2026-04-22 00:04 | 42.07625 | 91.27413 | 33161 ft | 477 kts | 134° |
| 2026-04-22 00:04 | 42.02872 | 91.33618 | 33162 ft | 476 kts | 134° |
| 2026-04-22 00:05 | 41.98141 | 91.39777 | 33158 ft | 477 kts | 134° |
| 2026-04-22 00:05 | 41.93372 | 91.45972 | 33163 ft | 478 kts | 134° |
| 2026-04-22 00:06 | 41.88577 | 91.52187 | 33164 ft | 477 kts | 134° |
| 2026-04-22 00:06 | 41.83803 | 91.58362 | 33171 ft | 483 kts | 135° |
| 2026-04-22 00:07 | 41.78860 | 91.64746 | 33164 ft | 496 kts | 134° |
| 2026-04-22 00:07 | 41.73881 | 91.71156 | 33160 ft | 496 kts | 135° |
| 2026-04-22 00:08 | 41.68936 | 91.77509 | 33155 ft | 497 kts | 135° |
| 2026-04-22 00:08 | 41.64013 | 91.84029 | 33156 ft | 498 kts | 131° |
| 2026-04-22 00:09 | 41.59739 | 91.91280 | 33153 ft | 496 kts | 123° |
| 2026-04-22 00:09 | 41.55991 | 91.98980 | 33154 ft | 495 kts | 120° |
| 2026-04-22 00:10 | 41.52381 | 92.06780 | 33155 ft | 496 kts | 120° |
| 2026-04-22 00:10 | 41.48739 | 92.14565 | 33156 ft | 495 kts | 120° |
| 2026-04-22 00:11 | 41.45026 | 92.22348 | 33161 ft | 497 kts | 121° |
| 2026-04-22 00:11 | 41.41310 | 92.30043 | 33165 ft | 498 kts | 121° |
| 2026-04-22 00:12 | 41.37536 | 92.37806 | 33174 ft | 498 kts | 121° |
| 2026-04-22 00:12 | 41.33748 | 92.45567 | 33182 ft | 498 kts | 121° |
| 2026-04-22 00:13 | 41.29991 | 92.53245 | 33188 ft | 498 kts | 121° |
| 2026-04-22 00:13 | 41.26208 | 92.60957 | 33196 ft | 497 kts | 122° |
| 2026-04-22 00:14 | 41.21622 | 92.67873 | 33202 ft | 501 kts | 136° |
| 2026-04-22 00:14 | 41.16465 | 92.73956 | 33210 ft | 501 kts | 139° |
| 2026-04-22 00:15 | 41.11148 | 92.80037 | 33223 ft | 502 kts | 139° |
| 2026-04-22 00:15 | 41.05881 | 92.86158 | 33223 ft | 502 kts | 138° |
| 2026-04-22 00:16 | 41.00687 | 92.92303 | 33233 ft | 502 kts | 137° |
| 2026-04-22 00:16 | 40.95483 | 92.98519 | 33229 ft | 503 kts | 137° |
| 2026-04-22 00:17 | 40.90290 | 93.04739 | 33231 ft | 502 kts | 137° |
| 2026-04-22 00:17 | 40.85128 | 93.10916 | 33226 ft | 501 kts | 137° |
| 2026-04-22 00:18 | 40.79968 | 93.17078 | 33221 ft | 503 kts | 137° |
| 2026-04-22 00:18 | 40.74770 | 93.23270 | 33218 ft | 503 kts | 137° |
| 2026-04-22 00:19 | 40.69579 | 93.29439 | 33219 ft | 503 kts | 137° |
| 2026-04-22 00:19 | 40.64370 | 93.35613 | 33216 ft | 504 kts | 137° |
| 2026-04-22 00:20 | 40.59167 | 93.41766 | 33212 ft | 504 kts | 137° |
| 2026-04-22 00:20 | 40.53932 | 93.47942 | 33208 ft | 504 kts | 137° |
| 2026-04-22 00:21 | 40.48706 | 93.54097 | 33206 ft | 504 kts | 137° |
| 2026-04-22 00:21 | 40.43512 | 93.60200 | 33211 ft | 504 kts | 137° |
| 2026-04-22 00:22 | 40.38268 | 93.66349 | 33207 ft | 504 kts | 138° |
| 2026-04-22 00:22 | 40.33067 | 93.72435 | 33209 ft | 505 kts | 138° |
| 2026-04-22 00:23 | 40.27821 | 93.78556 | 33202 ft | 504 kts | 137° |
| 2026-04-22 00:23 | 40.22589 | 93.84648 | 33197 ft | 504 kts | 137° |
| 2026-04-22 00:24 | 40.17376 | 93.90707 | 33200 ft | 503 kts | 137° |
| 2026-04-22 00:24 | 40.12138 | 93.96781 | 33195 ft | 503 kts | 137° |
| 2026-04-22 00:25 | 40.06893 | 94.02852 | 33200 ft | 504 kts | 137° |
| 2026-04-22 00:25 | 40.01662 | 94.08897 | 33212 ft | 504 kts | 137° |
| 2026-04-22 00:26 | 39.96422 | 94.14936 | 33214 ft | 504 kts | 137° |
| 2026-04-22 00:26 | 39.91153 | 94.20994 | 33235 ft | 504 kts | 137° |
| 2026-04-22 00:27 | 39.85887 | 94.27034 | 33258 ft | 504 kts | 137° |
| 2026-04-22 00:27 | 39.80621 | 94.33063 | 33301 ft | 504 kts | 137° |
| 2026-04-22 00:28 | 39.75379 | 94.39053 | 33309 ft | 503 kts | 137° |
| 2026-04-22 00:28 | 39.70128 | 94.45041 | 33341 ft | 503 kts | 137° |
| 2026-04-22 00:29 | 39.64875 | 94.51019 | 33355 ft | 503 kts | 137° |
| 2026-04-22 00:29 | 39.59611 | 94.56996 | 33370 ft | 503 kts | 137° |
| 2026-04-22 00:30 | 39.54348 | 94.62959 | 33376 ft | 504 kts | 137° |
| 2026-04-22 00:30 | 39.49076 | 94.68920 | 33389 ft | 503 kts | 138° |
| 2026-04-22 00:31 | 39.43799 | 94.74875 | 33412 ft | 504 kts | 138° |
| 2026-04-22 00:31 | 39.38512 | 94.80829 | 33384 ft | 505 kts | 138° |
| 2026-04-22 00:32 | 39.33254 | 94.86736 | 33358 ft | 503 kts | 138° |
| 2026-04-22 00:32 | 39.27967 | 94.92664 | 33369 ft | 503 kts | 138° |
| 2026-04-22 00:33 | 39.22653 | 94.98608 | 33353 ft | 504 kts | 138° |
| 2026-04-22 00:33 | 39.17381 | 95.04492 | 33368 ft | 505 kts | 138° |
| 2026-04-22 00:34 | 39.12046 | 95.10437 | 33368 ft | 505 kts | 138° |
| 2026-04-22 00:34 | 39.06751 | 95.16325 | 33391 ft | 504 kts | 138° |
| 2026-04-22 00:35 | 39.01447 | 95.22212 | 33406 ft | 504 kts | 138° |
| 2026-04-22 00:35 | 38.96141 | 95.28086 | 33416 ft | 504 kts | 138° |
| 2026-04-22 00:36 | 38.90842 | 95.33944 | 33408 ft | 504 kts | 138° |
| 2026-04-22 00:36 | 38.85545 | 95.39784 | 33411 ft | 503 kts | 138° |
| 2026-04-22 00:37 | 38.80232 | 95.45630 | 33419 ft | 504 kts | 138° |
| 2026-04-22 00:37 | 38.74890 | 95.51496 | 33434 ft | 502 kts | 138° |
| 2026-04-22 00:38 | 38.69570 | 95.57327 | 33436 ft | 503 kts | 138° |
| 2026-04-22 00:38 | 38.64299 | 95.63095 | 33407 ft | 503 kts | 138° |
| 2026-04-22 00:39 | 38.58974 | 95.68908 | 33387 ft | 502 kts | 139° |
| 2026-04-22 00:39 | 38.53661 | 95.74699 | 33382 ft | 503 kts | 139° |
| 2026-04-22 00:40 | 38.48367 | 95.80454 | 33388 ft | 503 kts | 139° |
| 2026-04-22 00:40 | 38.43070 | 95.86199 | 33387 ft | 502 kts | 139° |
| 2026-04-22 00:41 | 38.37754 | 95.91952 | 33395 ft | 502 kts | 139° |
| 2026-04-22 00:41 | 38.32449 | 95.97684 | 33400 ft | 502 kts | 139° |
| 2026-04-22 00:42 | 38.27107 | 96.03446 | 33413 ft | 501 kts | 139° |
| 2026-04-22 00:42 | 38.21804 | 96.09155 | 33420 ft | 502 kts | 139° |
| 2026-04-22 00:43 | 38.16467 | 96.14887 | 33435 ft | 502 kts | 139° |
| 2026-04-22 00:43 | 38.11113 | 96.20625 | 33439 ft | 502 kts | 139° |
| 2026-04-22 00:44 | 38.05795 | 96.26318 | 33451 ft | 502 kts | 139° |
| 2026-04-22 00:44 | 38.00437 | 96.32040 | 33454 ft | 503 kts | 139° |
| 2026-04-22 00:45 | 37.95082 | 96.37747 | 33453 ft | 502 kts | 139° |
| 2026-04-22 00:45 | 37.89735 | 96.43434 | 33427 ft | 505 kts | 139° |
| 2026-04-22 00:46 | 37.84354 | 96.49143 | 33443 ft | 504 kts | 139° |
| 2026-04-22 00:46 | 37.78981 | 96.54836 | 33429 ft | 506 kts | 140° |
| 2026-04-22 00:47 | 37.73591 | 96.60535 | 33453 ft | 505 kts | 140° |
| 2026-04-22 00:47 | 37.68180 | 96.66243 | 33468 ft | 507 kts | 140° |
| 2026-04-22 00:48 | 37.62762 | 96.71948 | 33475 ft | 507 kts | 141° |
| 2026-04-22 00:48 | 37.57330 | 96.77657 | 33505 ft | 508 kts | 141° |
| 2026-04-22 00:49 | 37.51915 | 96.83339 | 33502 ft | 508 kts | 141° |
| 2026-04-22 00:49 | 37.46465 | 96.89044 | 33500 ft | 510 kts | 141° |
| 2026-04-22 00:50 | 37.40969 | 96.94790 | 33508 ft | 511 kts | 141° |
| 2026-04-22 00:50 | 37.35528 | 97.00468 | 33495 ft | 512 kts | 141° |
| 2026-04-22 00:51 | 37.30048 | 97.06174 | 33493 ft | 513 kts | 141° |
| 2026-04-22 00:51 | 37.24540 | 97.11893 | 33512 ft | 511 kts | 141° |
| 2026-04-22 00:52 | 37.19052 | 97.17578 | 33473 ft | 513 kts | 142° |
| 2026-04-22 00:52 | 37.13580 | 97.23238 | 33494 ft | 513 kts | 142° |
| 2026-04-22 00:53 | 37.08055 | 97.28943 | 33472 ft | 513 kts | 142° |
| 2026-04-22 00:53 | 37.02584 | 97.34586 | 33432 ft | 513 kts | 142° |
| 2026-04-22 00:54 | 36.97062 | 97.40269 | 33431 ft | 514 kts | 142° |
| 2026-04-22 00:54 | 36.91524 | 97.45954 | 33462 ft | 514 kts | 142° |
| 2026-04-22 00:55 | 36.85989 | 97.51626 | 33460 ft | 514 kts | 142° |
| 2026-04-22 00:55 | 36.77692 | 97.60106 | 33480 ft | 516 kts | 143° |
| 2026-04-22 00:56 | 36.72127 | 97.65784 | 33505 ft | 517 kts | 143° |
| 2026-04-22 00:56 | 36.66588 | 97.71421 | 33498 ft | 516 kts | 144° |
| 2026-04-22 00:57 | 36.60986 | 97.77110 | 33509 ft | 517 kts | 144° |
| 2026-04-22 00:57 | 36.55411 | 97.82763 | 33505 ft | 517 kts | 144° |
| 2026-04-22 00:58 | 36.49846 | 97.88393 | 33532 ft | 518 kts | 144° |
| 2026-04-22 00:58 | 36.44234 | 97.94062 | 33513 ft | 518 kts | 144° |
| 2026-04-22 00:59 | 36.38675 | 97.99665 | 33521 ft | 519 kts | 145° |
| 2026-04-22 00:59 | 36.33072 | 98.05302 | 33496 ft | 518 kts | 145° |
| 2026-04-22 01:00 | 36.27446 | 98.10944 | 33510 ft | 520 kts | 144° |
| 2026-04-22 01:00 | 36.21840 | 98.16563 | 33505 ft | 520 kts | 145° |
| 2026-04-22 01:01 | 36.16179 | 98.22225 | 33505 ft | 520 kts | 145° |
| 2026-04-22 01:01 | 36.10586 | 98.27808 | 33466 ft | 519 kts | 145° |
| 2026-04-22 01:02 | 36.04955 | 98.33421 | 33464 ft | 519 kts | 145° |
| 2026-04-22 01:02 | 35.99350 | 98.38996 | 33475 ft | 520 kts | 146° |
| 2026-04-22 01:03 | 35.93703 | 98.44603 | 33506 ft | 520 kts | 146° |
| 2026-04-22 01:03 | 35.88071 | 98.50185 | 33525 ft | 520 kts | 146° |
| 2026-04-22 01:04 | 35.82422 | 98.55771 | 33557 ft | 518 kts | 146° |
| 2026-04-22 01:04 | 35.76827 | 98.61295 | 33570 ft | 519 kts | 146° |
| 2026-04-22 01:05 | 35.71189 | 98.66849 | 33564 ft | 516 kts | 147° |
| 2026-04-22 01:05 | 35.65582 | 98.72362 | 33560 ft | 517 kts | 147° |
| 2026-04-22 01:06 | 35.59929 | 98.77911 | 33552 ft | 517 kts | 147° |
| 2026-04-22 01:06 | 35.54328 | 98.83400 | 33552 ft | 516 kts | 147° |
| 2026-04-22 01:07 | 35.48696 | 98.88911 | 33559 ft | 515 kts | 147° |
| 2026-04-22 01:07 | 35.43106 | 98.94369 | 33573 ft | 514 kts | 147° |
| 2026-04-22 01:08 | 35.37498 | 98.99833 | 33597 ft | 516 kts | 147° |
| 2026-04-22 01:08 | 35.31886 | 99.05287 | 33589 ft | 514 kts | 148° |
| 2026-04-22 01:09 | 35.26276 | 99.10737 | 33580 ft | 513 kts | 148° |
| 2026-04-22 01:09 | 35.20676 | 99.16162 | 33570 ft | 514 kts | 148° |
| 2026-04-22 01:10 | 35.15096 | 99.21558 | 33570 ft | 512 kts | 148° |
| 2026-04-22 01:10 | 35.09489 | 99.26968 | 33581 ft | 514 kts | 148° |
| 2026-04-22 01:11 | 35.03878 | 99.32377 | 33575 ft | 512 kts | 148° |
| 2026-04-22 01:11 | 34.98251 | 99.37791 | 33557 ft | 513 kts | 148° |
| 2026-04-22 01:12 | 34.92631 | 99.43187 | 33527 ft | 512 kts | 149° |
| 2026-04-22 01:12 | 34.87038 | 99.48555 | 33488 ft | 512 kts | 149° |
| 2026-04-22 01:13 | 34.81456 | 99.53896 | 33460 ft | 510 kts | 149° |
| 2026-04-22 01:13 | 34.75860 | 99.59239 | 33458 ft | 511 kts | 149° |
| 2026-04-22 01:14 | 34.70266 | 99.64568 | 33482 ft | 510 kts | 149° |
| 2026-04-22 01:14 | 34.64692 | 99.69875 | 33511 ft | 509 kts | 150° |
| 2026-04-22 01:15 | 34.59117 | 99.75176 | 33527 ft | 507 kts | 150° |
| 2026-04-22 01:15 | 34.53559 | 99.80445 | 33553 ft | 507 kts | 150° |
| 2026-04-22 01:16 | 34.47984 | 99.85722 | 33551 ft | 507 kts | 150° |
| 2026-04-22 01:16 | 34.42445 | 99.90958 | 33530 ft | 505 kts | 150° |
| 2026-04-22 01:17 | 34.36915 | 99.96178 | 33530 ft | 507 kts | 150° |
| 2026-04-22 01:17 | 34.31352 | 100.01414 | 33527 ft | 505 kts | 150° |
| 2026-04-22 01:18 | 34.25825 | 100.06614 | 33522 ft | 504 kts | 151° |
| 2026-04-22 01:18 | 34.20288 | 100.11810 | 33525 ft | 506 kts | 151° |
| 2026-04-22 01:19 | 34.14733 | 100.17009 | 33526 ft | 504 kts | 151° |
| 2026-04-22 01:19 | 34.09198 | 100.22190 | 33532 ft | 504 kts | 151° |
| 2026-04-22 01:20 | 34.03666 | 100.27362 | 33529 ft | 502 kts | 151° |
| 2026-04-22 01:20 | 33.98161 | 100.32494 | 33525 ft | 500 kts | 151° |
| 2026-04-22 01:21 | 33.92616 | 100.37656 | 33530 ft | 503 kts | 152° |
| 2026-04-22 01:21 | 33.87137 | 100.42747 | 33527 ft | 500 kts | 152° |
| 2026-04-22 01:22 | 33.81623 | 100.47860 | 33526 ft | 501 kts | 152° |
| 2026-04-22 01:22 | 33.76092 | 100.52972 | 33527 ft | 501 kts | 152° |
| 2026-04-22 01:23 | 33.70573 | 100.58073 | 33532 ft | 499 kts | 152° |
| 2026-04-22 01:23 | 33.65089 | 100.63139 | 33530 ft | 498 kts | 152° |
| 2026-04-22 01:24 | 33.59620 | 100.68179 | 33539 ft | 497 kts | 152° |
| 2026-04-22 01:24 | 33.54106 | 100.73246 | 33542 ft | 498 kts | 152° |
| 2026-04-22 01:25 | 33.48635 | 100.78279 | 33546 ft | 496 kts | 152° |
| 2026-04-22 01:25 | 33.43172 | 100.83290 | 33541 ft | 494 kts | 153° |
| 2026-04-22 01:26 | 33.37686 | 100.88305 | 33543 ft | 495 kts | 153° |
| 2026-04-22 01:26 | 33.32238 | 100.93285 | 33539 ft | 495 kts | 153° |
| 2026-04-22 01:27 | 33.26769 | 100.98274 | 33550 ft | 494 kts | 153° |
| 2026-04-22 01:27 | 33.21318 | 101.03236 | 33547 ft | 491 kts | 153° |
| 2026-04-22 01:28 | 33.15898 | 101.08167 | 33539 ft | 491 kts | 153° |
| 2026-04-22 01:28 | 33.10444 | 101.13108 | 33534 ft | 492 kts | 153° |
| 2026-04-22 01:29 | 33.05033 | 101.18018 | 33540 ft | 490 kts | 153° |
| 2026-04-22 01:29 | 32.99560 | 101.22963 | 33566 ft | 494 kts | 153° |
| 2026-04-22 01:30 | 32.94129 | 101.27876 | 33573 ft | 492 kts | 152° |
| 2026-04-22 01:30 | 32.88630 | 101.32840 | 33559 ft | 489 kts | 152° |
| 2026-04-22 01:31 | 32.83210 | 101.37727 | 33559 ft | 488 kts | 152° |
| 2026-04-22 01:31 | 32.77742 | 101.42638 | 33549 ft | 491 kts | 152° |
| 2026-04-22 01:32 | 32.72338 | 101.47498 | 33543 ft | 487 kts | 152° |
| 2026-04-22 01:32 | 32.66951 | 101.52325 | 33559 ft | 488 kts | 152° |
| 2026-04-22 01:33 | 32.61523 | 101.57182 | 33555 ft | 487 kts | 152° |
| 2026-04-22 01:33 | 32.56094 | 101.62032 | 33552 ft | 486 kts | 152° |
| 2026-04-22 01:34 | 32.50749 | 101.66805 | 33542 ft | 485 kts | 152° |
| 2026-04-22 01:34 | 32.45364 | 101.71601 | 33531 ft | 485 kts | 152° |
| 2026-04-22 01:35 | 32.39939 | 101.76432 | 33507 ft | 485 kts | 152° |
| 2026-04-22 01:35 | 32.34569 | 101.81207 | 33500 ft | 485 kts | 152° |
| 2026-04-22 01:36 | 32.29171 | 101.85991 | 33500 ft | 487 kts | 152° |
| 2026-04-22 01:36 | 32.23732 | 101.90803 | 33504 ft | 484 kts | 152° |
| 2026-04-22 01:37 | 32.18363 | 101.95551 | 33510 ft | 485 kts | 151° |
| 2026-04-22 01:37 | 32.12990 | 102.00298 | 33508 ft | 484 kts | 152° |
| 2026-04-22 01:38 | 32.07616 | 102.05033 | 33509 ft | 485 kts | 152° |
| 2026-04-22 01:38 | 32.02206 | 102.09802 | 33508 ft | 486 kts | 152° |
| 2026-04-22 01:39 | 31.96822 | 102.14537 | 33495 ft | 481 kts | 151° |
| 2026-04-22 01:39 | 31.91461 | 102.19233 | 33491 ft | 482 kts | 151° |
| 2026-04-22 01:40 | 31.86140 | 102.23892 | 33485 ft | 483 kts | 151° |
| 2026-04-22 01:40 | 31.80760 | 102.28596 | 33483 ft | 485 kts | 150° |
| 2026-04-22 01:41 | 31.75377 | 102.33295 | 33483 ft | 481 kts | 150° |
| 2026-04-22 01:41 | 31.70046 | 102.37942 | 33485 ft | 480 kts | 150° |
| 2026-04-22 01:42 | 31.64689 | 102.42616 | 33487 ft | 478 kts | 150° |
| 2026-04-22 01:42 | 31.59369 | 102.47244 | 33497 ft | 481 kts | 151° |
| 2026-04-22 01:43 | 31.53960 | 102.51936 | 33500 ft | 483 kts | 150° |
| 2026-04-22 01:43 | 31.48627 | 102.56568 | 33503 ft | 479 kts | 150° |
| 2026-04-22 01:44 | 31.43207 | 102.61262 | 33500 ft | 484 kts | 150° |
| 2026-04-22 01:44 | 31.37861 | 102.65887 | 33491 ft | 478 kts | 150° |
| 2026-04-22 01:45 | 31.32473 | 102.70537 | 33503 ft | 484 kts | 150° |
| 2026-04-22 01:45 | 31.27093 | 102.75178 | 33567 ft | 481 kts | 150° |
| 2026-04-22 01:46 | 31.21689 | 102.79826 | 33590 ft | 481 kts | 150° |
| 2026-04-22 01:46 | 31.16317 | 102.84444 | 33564 ft | 482 kts | 150° |
| 2026-04-22 01:47 | 31.10872 | 102.89117 | 33538 ft | 482 kts | 149° |
| 2026-04-22 01:47 | 31.05484 | 102.93733 | 33521 ft | 483 kts | 150° |
| 2026-04-22 01:48 | 31.00054 | 102.98380 | 33520 ft | 485 kts | 149° |
| 2026-04-22 01:48 | 30.94618 | 103.03024 | 33507 ft | 483 kts | 149° |
| 2026-04-22 01:49 | 30.89159 | 103.07683 | 33523 ft | 488 kts | 149° |
| 2026-04-22 01:49 | 30.83718 | 103.12320 | 33511 ft | 485 kts | 149° |
| 2026-04-22 01:50 | 30.78259 | 103.16969 | 33487 ft | 488 kts | 149° |
| 2026-04-22 01:50 | 30.72819 | 103.21592 | 33413 ft | 486 kts | 150° |
| 2026-04-22 01:51 | 30.67345 | 103.26248 | 33322 ft | 489 kts | 150° |
| 2026-04-22 01:51 | 30.61853 | 103.30910 | 33288 ft | 492 kts | 149° |
| 2026-04-22 01:52 | 30.56327 | 103.35565 | 33244 ft | 491 kts | 150° |
| 2026-04-22 01:52 | 30.50849 | 103.40188 | 33198 ft | 493 kts | 150° |
| 2026-04-22 01:53 | 30.45311 | 103.44857 | 33189 ft | 492 kts | 150° |
| 2026-04-22 01:53 | 30.39814 | 103.49489 | 33160 ft | 496 kts | 150° |
| 2026-04-22 01:54 | 30.34236 | 103.54179 | 33167 ft | 495 kts | 150° |
| 2026-04-22 01:54 | 30.28626 | 103.58895 | 33139 ft | 497 kts | 150° |
| 2026-04-22 01:55 | 30.23008 | 103.63605 | 33143 ft | 498 kts | 150° |
| 2026-04-22 01:55 | 30.17447 | 103.68270 | 33138 ft | 498 kts | 150° |
| 2026-04-22 01:56 | 30.11765 | 103.73019 | 33123 ft | 500 kts | 151° |
| 2026-04-22 01:56 | 30.06127 | 103.77729 | 33124 ft | 499 kts | 150° |
| 2026-04-22 01:57 | 30.00476 | 103.82448 | 33118 ft | 503 kts | 151° |
| 2026-04-22 01:57 | 29.94822 | 103.87156 | 33103 ft | 504 kts | 151° |
| 2026-04-22 01:58 | 29.89106 | 103.91901 | 33121 ft | 507 kts | 151° |
| 2026-04-22 01:58 | 29.83371 | 103.96661 | 33116 ft | 508 kts | 151° |
| 2026-04-22 01:59 | 29.77638 | 104.01417 | 33109 ft | 508 kts | 152° |
| 2026-04-22 01:59 | 29.71890 | 104.06175 | 33110 ft | 511 kts | 152° |
| 2026-04-22 02:00 | 29.66126 | 104.10950 | 33119 ft | 511 kts | 152° |
| 2026-04-22 02:00 | 29.60360 | 104.15711 | 33104 ft | 511 kts | 152° |
| 2026-04-22 02:01 | 29.54568 | 104.20483 | 33110 ft | 515 kts | 152° |
| 2026-04-22 02:01 | 29.48713 | 104.25301 | 33113 ft | 515 kts | 152° |
| 2026-04-22 02:02 | 29.42915 | 104.30067 | 33091 ft | 518 kts | 152° |
| 2026-04-22 02:02 | 29.37015 | 104.34909 | 33127 ft | 522 kts | 152° |
| 2026-04-22 02:03 | 29.31137 | 104.39725 | 33123 ft | 523 kts | 152° |
| 2026-04-22 02:03 | 29.25245 | 104.44550 | 33118 ft | 523 kts | 152° |
| 2026-04-22 02:04 | 29.16293 | 104.51860 | 33102 ft | 527 kts | 152° |
| 2026-04-22 02:05 | 29.10345 | 104.56712 | 33119 ft | 525 kts | 152° |
| 2026-04-22 02:05 | 29.04312 | 104.61626 | 33097 ft | 528 kts | 153° |
| 2026-04-22 02:06 | 28.98284 | 104.66522 | 33110 ft | 536 kts | 153° |
| 2026-04-22 02:06 | 28.92236 | 104.71435 | 33132 ft | 534 kts | 153° |
| 2026-04-22 02:07 | 28.86142 | 104.76379 | 33124 ft | 534 kts | 153° |
| 2026-04-22 02:07 | 28.80111 | 104.81263 | 33122 ft | 534 kts | 153° |
| 2026-04-22 02:08 | 28.74052 | 104.86159 | 33126 ft | 539 kts | 154° |
| 2026-04-22 02:08 | 28.67913 | 104.91110 | 33131 ft | 539 kts | 154° |
| 2026-04-22 02:09 | 28.61776 | 104.96058 | 33127 ft | 538 kts | 153° |
| 2026-04-22 02:09 | 28.55746 | 105.00926 | 33125 ft | 520 kts | 154° |
| 2026-04-22 02:09 | 28.52867 | 105.03268 | 33125 ft | 501 kts | 154° |
| 2026-04-22 02:10 | 28.50101 | 105.05525 | 33122 ft | 478 kts | 155° |
| 2026-04-22 02:10 | 28.47449 | 105.07690 | 33135 ft | 457 kts | 155° |
| 2026-04-22 02:10 | 28.44922 | 105.09747 | 33137 ft | 437 kts | 156° |
| 2026-04-22 02:10 | 28.42497 | 105.11712 | 33129 ft | 418 kts | 157° |
| 2026-04-22 02:11 | 28.40179 | 105.13575 | 33155 ft | 409 kts | 158° |
| 2026-04-22 02:11 | 28.35480 | 105.17277 | 33146 ft | 414 kts | 158° |
| 2026-04-22 02:12 | 28.30705 | 105.21040 | 33155 ft | 417 kts | 158° |
| 2026-04-22 02:12 | 28.25953 | 105.24815 | 33148 ft | 419 kts | 158° |
| 2026-04-22 02:13 | 28.21185 | 105.28606 | 33157 ft | 421 kts | 157° |
| 2026-04-22 02:13 | 28.16399 | 105.32420 | 33141 ft | 417 kts | 157° |
| 2026-04-22 02:14 | 28.11639 | 105.36222 | 33145 ft | 420 kts | 158° |
| 2026-04-22 02:14 | 28.06867 | 105.40018 | 33148 ft | 420 kts | 158° |
| 2026-04-22 02:15 | 28.02076 | 105.43811 | 33144 ft | 421 kts | 160° |
| 2026-04-22 02:15 | 27.99609 | 105.45524 | 33152 ft | 410 kts | 166° |
| 2026-04-22 02:15 | 27.97048 | 105.46800 | 33149 ft | 391 kts | 177° |
| 2026-04-22 02:15 | 27.94452 | 105.47563 | 33150 ft | 374 kts | 186° |
| 2026-04-22 02:16 | 27.91953 | 105.47923 | 33154 ft | 362 kts | 192° |
| 2026-04-22 02:16 | 27.87021 | 105.47842 | 33150 ft | 338 kts | 205° |
| 2026-04-22 02:16 | 27.84793 | 105.47320 | 33151 ft | 325 kts | 212° |
| 2026-04-22 02:17 | 27.82671 | 105.46516 | 33152 ft | 317 kts | 217° |
| 2026-04-22 02:17 | 27.78756 | 105.44382 | 33156 ft | 305 kts | 226° |
| 2026-04-22 02:17 | 27.77061 | 105.43046 | 33154 ft | 293 kts | 232° |
| 2026-04-22 02:18 | 27.75548 | 105.41550 | 33158 ft | 287 kts | 236° |
| 2026-04-22 02:18 | 27.74187 | 105.39937 | 33157 ft | 281 kts | 240° |
| 2026-04-22 02:18 | 27.72946 | 105.38239 | 33159 ft | 277 kts | 244° |
| 2026-04-22 02:18 | 27.71872 | 105.36453 | 33164 ft | 274 kts | 249° |
| 2026-04-22 02:19 | 27.70980 | 105.34579 | 33165 ft | 268 kts | 252° |
| 2026-04-22 02:19 | 27.70233 | 105.32679 | 33170 ft | 266 kts | 255° |
| 2026-04-22 02:19 | 27.69543 | 105.30711 | 33170 ft | 267 kts | 255° |
| 2026-04-22 02:19 | 27.68893 | 105.28770 | 33172 ft | 265 kts | 256° |
| 2026-04-22 02:20 | 27.68244 | 105.26823 | 33173 ft | 265 kts | 255° |
| 2026-04-22 02:20 | 27.67594 | 105.24883 | 33176 ft | 265 kts | 256° |
| 2026-04-22 02:20 | 27.66942 | 105.22934 | 33178 ft | 268 kts | 256° |
| 2026-04-22 02:20 | 27.66286 | 105.20979 | 33179 ft | 267 kts | 255° |
| 2026-04-22 02:21 | 27.65635 | 105.19051 | 33184 ft | 265 kts | 256° |
| 2026-04-22 02:21 | 27.64973 | 105.17084 | 33186 ft | 266 kts | 256° |
| 2026-04-22 02:21 | 27.64327 | 105.15164 | 33192 ft | 264 kts | 256° |
| 2026-04-22 02:21 | 27.63667 | 105.13223 | 33199 ft | 267 kts | 254° |
| 2026-04-22 02:22 | 27.62870 | 105.11298 | 33199 ft | 273 kts | 248° |
| 2026-04-22 02:22 | 27.61691 | 105.09560 | 33204 ft | 283 kts | 238° |
| 2026-04-22 02:22 | 27.60283 | 105.08005 | 33199 ft | 286 kts | 235° |
| 2026-04-22 02:22 | 27.58818 | 105.06489 | 33200 ft | 286 kts | 235° |
| 2026-04-22 02:23 | 27.57354 | 105.04953 | 33206 ft | 287 kts | 235° |
| 2026-04-22 02:23 | 27.55916 | 105.03415 | 33204 ft | 286 kts | 236° |
| 2026-04-22 02:23 | 27.54481 | 105.01865 | 33205 ft | 286 kts | 237° |
| 2026-04-22 02:23 | 27.53041 | 105.00298 | 33203 ft | 286 kts | 236° |
| 2026-04-22 02:24 | 27.51608 | 104.98737 | 33205 ft | 286 kts | 236° |
| 2026-04-22 02:24 | 27.50162 | 104.97160 | 33208 ft | 288 kts | 236° |
| 2026-04-22 02:24 | 27.48732 | 104.95606 | 33210 ft | 286 kts | 236° |
| 2026-04-22 02:24 | 27.47315 | 104.94067 | 33210 ft | 285 kts | 236° |
| 2026-04-22 02:25 | 27.45878 | 104.92503 | 33212 ft | 287 kts | 236° |
| 2026-04-22 02:25 | 27.44442 | 104.90939 | 33209 ft | 287 kts | 236° |
| 2026-04-22 02:25 | 27.43016 | 104.89389 | 33214 ft | 285 kts | 236° |
| 2026-04-22 02:25 | 27.41584 | 104.87837 | 33215 ft | 285 kts | 236° |
| 2026-04-22 02:26 | 27.40159 | 104.86292 | 33219 ft | 286 kts | 236° |
| 2026-04-22 02:26 | 27.38711 | 104.84715 | 33218 ft | 287 kts | 237° |
| 2026-04-22 02:26 | 27.37270 | 104.83147 | 33219 ft | 286 kts | 236° |
| 2026-04-22 02:26 | 27.35841 | 104.81596 | 33220 ft | 285 kts | 236° |
| 2026-04-22 02:27 | 27.34431 | 104.80064 | 33225 ft | 284 kts | 236° |
| 2026-04-22 02:27 | 27.33007 | 104.78513 | 33228 ft | 287 kts | 235° |
| 2026-04-22 02:27 | 27.31561 | 104.76936 | 33227 ft | 287 kts | 236° |
| 2026-04-22 02:27 | 27.30129 | 104.75387 | 33232 ft | 287 kts | 236° |
| 2026-04-22 02:28 | 27.28681 | 104.73822 | 33230 ft | 287 kts | 236° |
| 2026-04-22 02:28 | 27.27252 | 104.72278 | 33230 ft | 286 kts | 235° |
| 2026-04-22 02:28 | 27.25831 | 104.70739 | 33232 ft | 285 kts | 236° |
| 2026-04-22 02:28 | 27.24395 | 104.69187 | 33230 ft | 285 kts | 236° |
| 2026-04-22 02:29 | 27.22954 | 104.67635 | 33237 ft | 287 kts | 235° |
| 2026-04-22 02:29 | 27.21512 | 104.66088 | 33240 ft | 288 kts | 236° |
| 2026-04-22 02:29 | 27.20068 | 104.64539 | 33243 ft | 287 kts | 236° |
| 2026-04-22 02:29 | 27.18634 | 104.63002 | 33242 ft | 287 kts | 235° |
| 2026-04-22 02:30 | 27.17191 | 104.61456 | 33244 ft | 286 kts | 236° |
| 2026-04-22 02:30 | 27.15739 | 104.59906 | 33250 ft | 287 kts | 235° |
| 2026-04-22 02:30 | 27.14295 | 104.58363 | 33255 ft | 288 kts | 235° |
| 2026-04-22 02:30 | 27.12846 | 104.56815 | 33258 ft | 286 kts | 235° |
| 2026-04-22 02:31 | 27.11397 | 104.55267 | 33261 ft | 285 kts | 236° |
| 2026-04-22 02:31 | 27.09964 | 104.53732 | 33267 ft | 287 kts | 235° |
| 2026-04-22 02:31 | 27.08530 | 104.52199 | 33269 ft | 288 kts | 235° |
| 2026-04-22 02:31 | 27.07076 | 104.50648 | 33272 ft | 285 kts | 235° |
| 2026-04-22 02:32 | 27.05641 | 104.49119 | 33279 ft | 286 kts | 235° |
| 2026-04-22 02:32 | 27.04191 | 104.47571 | 33280 ft | 287 kts | 235° |
| 2026-04-22 02:32 | 27.02740 | 104.46021 | 33277 ft | 287 kts | 235° |
| 2026-04-22 02:32 | 27.01300 | 104.44486 | 33280 ft | 287 kts | 235° |
| 2026-04-22 02:33 | 26.99850 | 104.42939 | 33285 ft | 288 kts | 235° |
| 2026-04-22 02:33 | 26.98388 | 104.41380 | 33285 ft | 288 kts | 235° |
| 2026-04-22 02:33 | 26.96955 | 104.39857 | 33292 ft | 287 kts | 235° |
| 2026-04-22 02:33 | 26.95486 | 104.38294 | 33293 ft | 286 kts | 234° |
| 2026-04-22 02:34 | 26.94050 | 104.36763 | 33294 ft | 286 kts | 235° |
| 2026-04-22 02:34 | 26.92610 | 104.35226 | 33295 ft | 288 kts | 235° |
| 2026-04-22 02:34 | 26.91198 | 104.33723 | 33297 ft | 289 kts | 235° |
| 2026-04-22 02:34 | 26.89704 | 104.32138 | 33299 ft | 287 kts | 234° |
| 2026-04-22 02:35 | 26.88298 | 104.30649 | 33304 ft | 288 kts | 234° |
| 2026-04-22 02:35 | 26.86849 | 104.29112 | 33306 ft | 288 kts | 234° |
| 2026-04-22 02:35 | 26.85403 | 104.27603 | 33297 ft | 289 kts | 233° |
| 2026-04-22 02:35 | 26.83872 | 104.26128 | 33299 ft | 292 kts | 231° |
| 2026-04-22 02:36 | 26.82293 | 104.24674 | 33297 ft | 292 kts | 231° |
| 2026-04-22 02:36 | 26.80724 | 104.23237 | 33299 ft | 292 kts | 231° |
| 2026-04-22 02:36 | 26.79163 | 104.21796 | 33303 ft | 293 kts | 232° |
| 2026-04-22 02:36 | 26.77591 | 104.20330 | 33306 ft | 293 kts | 231° |
| 2026-04-22 02:37 | 26.76012 | 104.18854 | 33303 ft | 292 kts | 231° |
| 2026-04-22 02:37 | 26.74472 | 104.17419 | 33300 ft | 291 kts | 231° |
| 2026-04-22 02:37 | 26.72913 | 104.15964 | 33302 ft | 292 kts | 231° |
| 2026-04-22 02:37 | 26.71340 | 104.14500 | 33304 ft | 292 kts | 231° |
| 2026-04-22 02:38 | 26.69778 | 104.13041 | 33299 ft | 293 kts | 231° |
| 2026-04-22 02:38 | 26.68217 | 104.11580 | 33296 ft | 293 kts | 231° |
| 2026-04-22 02:38 | 26.66648 | 104.10114 | 33297 ft | 292 kts | 231° |
| 2026-04-22 02:38 | 26.65110 | 104.08683 | 33296 ft | 290 kts | 232° |
| 2026-04-22 02:39 | 26.63559 | 104.07236 | 33303 ft | 291 kts | 231° |
| 2026-04-22 02:39 | 26.61988 | 104.05770 | 33300 ft | 292 kts | 231° |
| 2026-04-22 02:39 | 26.60419 | 104.04305 | 33296 ft | 293 kts | 231° |
| 2026-04-22 02:39 | 26.58864 | 104.02853 | 33290 ft | 294 kts | 231° |
| 2026-04-22 02:40 | 26.57293 | 104.01391 | 33290 ft | 293 kts | 231° |
| 2026-04-22 02:40 | 26.55721 | 103.99934 | 33284 ft | 291 kts | 231° |
| 2026-04-22 02:40 | 26.54173 | 103.98497 | 33281 ft | 291 kts | 231° |
| 2026-04-22 02:40 | 26.52613 | 103.97044 | 33275 ft | 293 kts | 231° |
| 2026-04-22 02:41 | 26.51028 | 103.95569 | 33272 ft | 293 kts | 231° |
| 2026-04-22 02:41 | 26.49464 | 103.94119 | 33278 ft | 291 kts | 231° |
| 2026-04-22 02:41 | 26.47919 | 103.92683 | 33280 ft | 292 kts | 231° |
| 2026-04-22 02:41 | 26.46346 | 103.91219 | 33280 ft | 294 kts | 231° |
| 2026-04-22 02:42 | 26.44781 | 103.89764 | 33286 ft | 292 kts | 231° |
| 2026-04-22 02:42 | 26.43215 | 103.88311 | 33288 ft | 293 kts | 230° |
| 2026-04-22 02:42 | 26.41666 | 103.86880 | 33287 ft | 292 kts | 231° |
| 2026-04-22 02:42 | 26.40076 | 103.85407 | 33292 ft | 294 kts | 231° |
| 2026-04-22 02:43 | 26.38513 | 103.83952 | 33292 ft | 295 kts | 231° |
| 2026-04-22 02:43 | 26.36928 | 103.82481 | 33295 ft | 294 kts | 231° |
| 2026-04-22 02:43 | 26.35362 | 103.81032 | 33299 ft | 295 kts | 230° |
| 2026-04-22 02:43 | 26.33766 | 103.79559 | 33303 ft | 294 kts | 231° |
| 2026-04-22 02:44 | 26.32192 | 103.78104 | 33306 ft | 293 kts | 230° |
| 2026-04-22 02:44 | 26.30617 | 103.76646 | 33312 ft | 295 kts | 231° |
| 2026-04-22 02:44 | 26.29036 | 103.75181 | 33316 ft | 295 kts | 230° |
| 2026-04-22 02:44 | 26.27455 | 103.73721 | 33317 ft | 294 kts | 231° |
| 2026-04-22 02:45 | 26.25886 | 103.72272 | 33319 ft | 292 kts | 230° |
| 2026-04-22 02:45 | 26.24325 | 103.70829 | 33326 ft | 293 kts | 231° |
| 2026-04-22 02:45 | 26.22759 | 103.69379 | 33329 ft | 295 kts | 231° |
| 2026-04-22 02:45 | 26.21164 | 103.67905 | 33331 ft | 293 kts | 230° |
| 2026-04-22 02:46 | 26.19611 | 103.66473 | 33332 ft | 293 kts | 230° |
| 2026-04-22 02:46 | 26.18017 | 103.65001 | 33331 ft | 295 kts | 231° |
| 2026-04-22 02:46 | 26.16441 | 103.63545 | 33333 ft | 292 kts | 230° |
| 2026-04-22 02:46 | 26.14882 | 103.62102 | 33337 ft | 291 kts | 231° |
| 2026-04-22 02:47 | 26.13347 | 103.60671 | 33320 ft | 295 kts | 230° |
| 2026-04-22 02:47 | 26.11760 | 103.59193 | 33037 ft | 297 kts | 230° |
| 2026-04-22 02:47 | 26.10166 | 103.57718 | 32596 ft | 296 kts | 230° |
| 2026-04-22 02:47 | 26.08602 | 103.56274 | 32084 ft | 294 kts | 230° |
| 2026-04-22 02:48 | 26.07024 | 103.54814 | 31517 ft | 293 kts | 230° |
| 2026-04-22 02:48 | 26.05461 | 103.53365 | 30945 ft | 295 kts | 230° |
| 2026-04-22 02:48 | 26.03881 | 103.51900 | 30343 ft | 298 kts | 230° |
| 2026-04-22 02:48 | 26.02286 | 103.50421 | 29732 ft | 302 kts | 230° |
| 2026-04-22 02:49 | 26.00665 | 103.48919 | 29098 ft | 304 kts | 230° |
| 2026-04-22 02:49 | 25.99035 | 103.47413 | 28447 ft | 307 kts | 229° |
| 2026-04-22 02:49 | 25.97380 | 103.45881 | 27772 ft | 311 kts | 229° |
| 2026-04-22 02:49 | 25.95700 | 103.44327 | 27064 ft | 314 kts | 228° |
| 2026-04-22 02:50 | 25.94018 | 103.42774 | 26323 ft | 317 kts | 228° |
| 2026-04-22 02:50 | 25.92309 | 103.41200 | 25554 ft | 321 kts | 228° |
| 2026-04-22 02:50 | 25.90575 | 103.39602 | 24790 ft | 324 kts | 227° |
| 2026-04-22 02:50 | 25.88861 | 103.38026 | 24423 ft | 319 kts | 227° |
| 2026-04-22 02:51 | 25.87124 | 103.36430 | 24148 ft | 323 kts | 227° |
| 2026-04-22 02:51 | 25.85387 | 103.34829 | 23741 ft | 325 kts | 227° |
| 2026-04-22 02:51 | 25.83658 | 103.33239 | 23213 ft | 324 kts | 226° |
| 2026-04-22 02:51 | 25.81929 | 103.31652 | 22643 ft | 320 kts | 226° |
| 2026-04-22 02:52 | 25.80222 | 103.30083 | 22092 ft | 318 kts | 226° |
| 2026-04-22 02:52 | 25.78535 | 103.28531 | 21530 ft | 315 kts | 226° |
| 2026-04-22 02:52 | 25.76857 | 103.26988 | 20975 ft | 314 kts | 226° |
| 2026-04-22 02:52 | 25.75169 | 103.25435 | 20415 ft | 313 kts | 226° |
| 2026-04-22 02:53 | 25.73507 | 103.23907 | 19863 ft | 311 kts | 226° |
| 2026-04-22 02:53 | 25.71857 | 103.22389 | 19304 ft | 310 kts | 225° |
| 2026-04-22 02:53 | 25.70210 | 103.20876 | 18752 ft | 308 kts | 226° |
| 2026-04-22 02:53 | 25.68568 | 103.19366 | 18225 ft | 305 kts | 226° |
| 2026-04-22 02:54 | 25.66947 | 103.17875 | 17723 ft | 302 kts | 225° |
| 2026-04-22 02:54 | 25.65333 | 103.16392 | 17219 ft | 299 kts | 225° |
| 2026-04-22 02:54 | 25.63735 | 103.14923 | 16676 ft | 299 kts | 225° |
| 2026-04-22 02:54 | 25.62124 | 103.13442 | 16075 ft | 300 kts | 225° |
| 2026-04-22 02:55 | 25.60525 | 103.11976 | 15564 ft | 298 kts | 224° |
| 2026-04-22 02:55 | 25.58950 | 103.10532 | 15053 ft | 297 kts | 224° |
| 2026-04-22 02:55 | 25.57343 | 103.09061 | 14539 ft | 296 kts | 224° |
| 2026-04-22 02:55 | 25.55767 | 103.07619 | 14357 ft | 293 kts | 224° |
| 2026-04-22 02:56 | 25.54192 | 103.06177 | 14279 ft | 297 kts | 224° |
| 2026-04-22 02:56 | 25.52601 | 103.04719 | 14168 ft | 298 kts | 224° |
| 2026-04-22 02:56 | 25.51001 | 103.03257 | 14036 ft | 295 kts | 224° |
| 2026-04-22 02:56 | 25.49411 | 103.01804 | 13902 ft | 296 kts | 224° |
| 2026-04-22 02:57 | 25.47827 | 103.00359 | 13755 ft | 296 kts | 224° |
| 2026-04-22 02:57 | 25.46150 | 102.98976 | 13611 ft | 300 kts | 216° |
| 2026-04-22 02:57 | 25.44201 | 102.98119 | 13457 ft | 310 kts | 192° |
| 2026-04-22 02:57 | 25.42028 | 102.98370 | 13289 ft | 322 kts | 162° |
| 2026-04-22 02:58 | 25.40170 | 102.99800 | 13162 ft | 330 kts | 132° |
| 2026-04-22 02:58 | 25.39126 | 103.02042 | 13002 ft | 334 kts | 104° |
| 2026-04-22 02:58 | 25.38856 | 103.04574 | 12764 ft | 334 kts | 91° |
| 2026-04-22 02:58 | 25.38872 | 103.07130 | 12444 ft | 331 kts | 88° |
| 2026-04-22 02:59 | 25.38901 | 103.09673 | 12086 ft | 327 kts | 90° |
| 2026-04-22 02:59 | 25.38611 | 103.12142 | 11659 ft | 323 kts | 111° |
| 2026-04-22 02:59 | 25.37407 | 103.14178 | 11461 ft | 313 kts | 140° |
| 2026-04-22 02:59 | 25.35582 | 103.15462 | 11311 ft | 310 kts | 162° |
| 2026-04-22 03:00 | 25.33503 | 103.16075 | 11152 ft | 301 kts | 177° |
| 2026-04-22 03:00 | 25.31425 | 103.16232 | 11153 ft | 298 kts | 187° |
| 2026-04-22 03:00 | 25.29448 | 103.15769 | 11153 ft | 290 kts | 209° |
| 2026-04-22 03:00 | 25.27790 | 103.14544 | 11159 ft | 280 kts | 227° |
| 2026-04-22 03:01 | 25.26525 | 103.12917 | 11164 ft | 276 kts | 237° |
| 2026-04-22 03:01 | 25.25606 | 103.11083 | 11161 ft | 275 kts | 253° |
| 2026-04-22 03:01 | 25.25236 | 103.09011 | 11167 ft | 273 kts | 264° |
| 2026-04-22 03:01 | 25.25017 | 103.06944 | 11120 ft | 276 kts | 259° |
| 2026-04-22 03:02 | 25.24348 | 103.04932 | 10669 ft | 280 kts | 243° |
| 2026-04-22 03:02 | 25.23202 | 103.03198 | 10015 ft | 287 kts | 230° |
| 2026-04-22 03:02 | 25.21749 | 103.01679 | 9431 ft | 288 kts | 223° |
| 2026-04-22 03:02 | 25.20206 | 103.00316 | 9213 ft | 276 kts | 221° |
| 2026-04-22 03:03 | 25.18696 | 102.99049 | 9212 ft | 272 kts | 221° |
| 2026-04-22 03:03 | 25.17172 | 102.97757 | 9203 ft | 273 kts | 221° |
| 2026-04-22 03:03 | 25.15685 | 102.96477 | 9207 ft | 272 kts | 221° |
| 2026-04-22 03:03 | 25.14178 | 102.95164 | 9207 ft | 274 kts | 222° |
| 2026-04-22 03:04 | 25.12679 | 102.93858 | 9197 ft | 272 kts | 222° |
| 2026-04-22 03:04 | 25.11204 | 102.92574 | 9257 ft | 271 kts | 222° |
| 2026-04-22 03:04 | 25.09717 | 102.91283 | 9275 ft | 272 kts | 222° |
| 2026-04-22 03:04 | 25.08225 | 102.89986 | 9317 ft | 273 kts | 222° |
| 2026-04-22 03:05 | 25.06739 | 102.88694 | 9333 ft | 272 kts | 222° |
| 2026-04-22 03:05 | 25.05324 | 102.87318 | 9356 ft | 270 kts | 234° |
| 2026-04-22 03:05 | 25.04454 | 102.85525 | 9304 ft | 264 kts | 252° |
| 2026-04-22 03:05 | 25.03904 | 102.83585 | 9327 ft | 264 kts | 254° |
| 2026-04-22 03:06 | 25.03327 | 102.81646 | 9312 ft | 264 kts | 251° |
| 2026-04-22 03:06 | 25.02684 | 102.79743 | 9325 ft | 266 kts | 250° |
| 2026-04-22 03:06 | 25.02086 | 102.77828 | 9409 ft | 266 kts | 259° |
| 2026-04-22 03:06 | 25.02128 | 102.75788 | 8871 ft | 272 kts | 283° |
| 2026-04-22 03:07 | 25.02730 | 102.73918 | 9276 ft | 264 kts | 288° |
| 2026-04-22 03:07 | 25.03367 | 102.71957 | 9082 ft | 275 kts | 286° |
| 2026-04-22 03:07 | 25.03899 | 102.69990 | 8984 ft | 262 kts | 283° |
| 2026-04-22 03:07 | 25.04371 | 102.68025 | 8989 ft | 269 kts | 283° |
| 2026-04-22 03:08 | 25.04839 | 102.66034 | 9039 ft | 268 kts | 283° |
| 2026-04-22 03:08 | 25.05306 | 102.64053 | 9046 ft | 266 kts | 283° |
| 2026-04-22 03:08 | 25.05777 | 102.62070 | 9063 ft | 266 kts | 283° |
| 2026-04-22 03:08 | 25.06246 | 102.60098 | 9106 ft | 266 kts | 283° |
| 2026-04-22 03:09 | 25.06715 | 102.58121 | 9121 ft | 267 kts | 283° |
| 2026-04-22 03:09 | 25.07186 | 102.56138 | 9125 ft | 267 kts | 283° |
| 2026-04-22 03:09 | 25.07652 | 102.54182 | 9142 ft | 264 kts | 283° |
| 2026-04-22 03:09 | 25.08120 | 102.52196 | 9148 ft | 265 kts | 282° |
| 2026-04-22 03:10 | 25.08539 | 102.50239 | 9137 ft | 265 kts | 281° |
| 2026-04-22 03:10 | 25.08866 | 102.48222 | 9161 ft | 264 kts | 276° |
| 2026-04-22 03:10 | 25.09030 | 102.46217 | 9202 ft | 267 kts | 271° |
| 2026-04-22 03:10 | 25.09000 | 102.44177 | 9237 ft | 265 kts | 266° |
| 2026-04-22 03:11 | 25.08811 | 102.42139 | 9229 ft | 265 kts | 261° |
| 2026-04-22 03:11 | 25.08436 | 102.40149 | 9244 ft | 267 kts | 255° |
| 2026-04-22 03:11 | 25.07868 | 102.38202 | 9264 ft | 266 kts | 250° |
| 2026-04-22 03:11 | 25.07094 | 102.36344 | 9219 ft | 267 kts | 243° |
| 2026-04-22 03:12 | 25.06100 | 102.34628 | 9246 ft | 268 kts | 235° |
| 2026-04-22 03:12 | 25.03479 | 102.31683 | 9259 ft | 273 kts | 221° |
| 2026-04-22 03:12 | 25.01881 | 102.30516 | 9290 ft | 275 kts | 213° |
| 2026-04-22 03:13 | 25.00114 | 102.29592 | 9287 ft | 279 kts | 206° |
| 2026-04-22 03:13 | 24.98259 | 102.28951 | 9290 ft | 282 kts | 198° |
| 2026-04-22 03:13 | 24.96332 | 102.28585 | 9342 ft | 284 kts | 191° |
| 2026-04-22 03:13 | 24.94341 | 102.28497 | 9362 ft | 287 kts | 183° |
| 2026-04-22 03:14 | 24.92327 | 102.28725 | 9362 ft | 293 kts | 174° |
| 2026-04-22 03:14 | 24.90367 | 102.29286 | 9414 ft | 296 kts | 166° |
| 2026-04-22 03:14 | 24.88451 | 102.30170 | 9456 ft | 300 kts | 158° |
| 2026-04-22 03:14 | 24.86650 | 102.31365 | 9476 ft | 304 kts | 148° |
| 2026-04-22 03:15 | 24.85050 | 102.32883 | 9499 ft | 306 kts | 139° |
| 2026-04-22 03:15 | 24.83641 | 102.34666 | 9529 ft | 312 kts | 130° |
| 2026-04-22 03:15 | 24.82461 | 102.36661 | 9540 ft | 311 kts | 122° |
| 2026-04-22 03:15 | 24.81508 | 102.38856 | 9583 ft | 317 kts | 114° |
| 2026-04-22 03:16 | 24.80821 | 102.41130 | 9639 ft | 318 kts | 106° |
| 2026-04-22 03:16 | 24.80388 | 102.43512 | 9693 ft | 318 kts | 98° |
| 2026-04-22 03:16 | 24.80220 | 102.45972 | 9716 ft | 320 kts | 90° |
| 2026-04-22 03:16 | 24.80338 | 102.48412 | 9754 ft | 320 kts | 83° |
| 2026-04-22 03:17 | 24.80686 | 102.50805 | 9791 ft | 322 kts | 77° |
| 2026-04-22 03:17 | 24.81279 | 102.53203 | 9784 ft | 320 kts | 70° |
| 2026-04-22 03:17 | 24.82108 | 102.55481 | 9771 ft | 320 kts | 62° |
| 2026-04-22 03:17 | 24.83176 | 102.57620 | 9821 ft | 320 kts | 55° |
| 2026-04-22 03:18 | 24.84444 | 102.59607 | 9814 ft | 317 kts | 49° |
| 2026-04-22 03:18 | 24.85884 | 102.61443 | 9804 ft | 316 kts | 42° |
| 2026-04-22 03:18 | 24.87484 | 102.63068 | 9826 ft | 313 kts | 35° |
| 2026-04-22 03:18 | 24.89255 | 102.64503 | 9816 ft | 311 kts | 28° |
| 2026-04-22 03:19 | 24.91143 | 102.65683 | 9843 ft | 309 kts | 21° |
| 2026-04-22 03:19 | 24.93090 | 102.66576 | 9852 ft | 306 kts | 14° |
| 2026-04-22 03:19 | 24.95139 | 102.67211 | 9867 ft | 302 kts | 7° |
| 2026-04-22 03:19 | 24.97196 | 102.67563 | 9882 ft | 297 kts | 359° |
| 2026-04-22 03:20 | 24.99268 | 102.67632 | 9898 ft | 293 kts | 352° |
| 2026-04-22 03:20 | 25.01294 | 102.67413 | 9910 ft | 290 kts | 345° |
| 2026-04-22 03:20 | 25.03258 | 102.66898 | 9926 ft | 287 kts | 337° |
| 2026-04-22 03:20 | 25.05103 | 102.66094 | 9948 ft | 285 kts | 329° |
| 2026-04-22 03:21 | 25.06799 | 102.65024 | 9979 ft | 280 kts | 321° |
| 2026-04-22 03:21 | 25.08319 | 102.63708 | 9995 ft | 274 kts | 313° |
| 2026-04-22 03:21 | 25.09642 | 102.62162 | 9982 ft | 274 kts | 305° |
| 2026-04-22 03:21 | 25.10704 | 102.60444 | 9988 ft | 271 kts | 296° |
| 2026-04-22 03:22 | 25.11498 | 102.58554 | 10028 ft | 270 kts | 288° |
| 2026-04-22 03:22 | 25.12040 | 102.56581 | 10035 ft | 269 kts | 281° |
| 2026-04-22 03:22 | 25.12309 | 102.54540 | 10051 ft | 270 kts | 272° |
| 2026-04-22 03:22 | 25.12275 | 102.52498 | 10055 ft | 266 kts | 264° |
| 2026-04-22 03:23 | 25.11931 | 102.50497 | 10082 ft | 267 kts | 255° |
| 2026-04-22 03:23 | 25.11219 | 102.48583 | 10099 ft | 268 kts | 244° |
| 2026-04-22 03:23 | 25.10175 | 102.46877 | 10104 ft | 271 kts | 233° |
| 2026-04-22 03:23 | 25.08826 | 102.45393 | 10143 ft | 274 kts | 223° |
| 2026-04-22 03:24 | 25.07256 | 102.44198 | 10170 ft | 278 kts | 214° |
| 2026-04-22 03:24 | 25.05490 | 102.43255 | 10180 ft | 282 kts | 206° |
| 2026-04-22 03:24 | 25.03604 | 102.42604 | 10224 ft | 285 kts | 200° |
| 2026-04-22 03:24 | 25.01672 | 102.42138 | 10257 ft | 287 kts | 195° |
| 2026-04-22 03:25 | 24.99685 | 102.41856 | 10292 ft | 289 kts | 190° |
| 2026-04-22 03:25 | 24.97662 | 102.41789 | 10303 ft | 293 kts | 184° |
| 2026-04-22 03:25 | 24.95642 | 102.41950 | 10331 ft | 295 kts | 178° |
| 2026-04-22 03:25 | 24.93604 | 102.42347 | 10340 ft | 299 kts | 173° |
| 2026-04-22 03:26 | 24.91591 | 102.42977 | 10380 ft | 302 kts | 166° |
| 2026-04-22 03:26 | 24.89647 | 102.43838 | 10427 ft | 304 kts | 160° |
| 2026-04-22 03:26 | 24.87778 | 102.44942 | 10459 ft | 307 kts | 153° |
| 2026-04-22 03:26 | 24.86005 | 102.46300 | 10477 ft | 312 kts | 146° |
| 2026-04-22 03:27 | 24.84394 | 102.47863 | 10506 ft | 314 kts | 139° |
| 2026-04-22 03:27 | 24.82922 | 102.49659 | 10525 ft | 317 kts | 132° |
| 2026-04-22 03:27 | 24.81639 | 102.51653 | 10524 ft | 319 kts | 124° |
| 2026-04-22 03:27 | 24.80583 | 102.53799 | 10520 ft | 321 kts | 117° |
| 2026-04-22 03:28 | 24.79766 | 102.56081 | 10538 ft | 323 kts | 110° |
| 2026-04-22 03:28 | 24.79201 | 102.58479 | 10521 ft | 325 kts | 102° |
| 2026-04-22 03:28 | 24.78912 | 102.60929 | 10533 ft | 325 kts | 94° |
| 2026-04-22 03:28 | 24.78897 | 102.63417 | 10537 ft | 326 kts | 86° |
| 2026-04-22 03:29 | 24.79156 | 102.65857 | 10559 ft | 324 kts | 79° |
| 2026-04-22 03:29 | 24.79699 | 102.68285 | 10546 ft | 326 kts | 71° |
| 2026-04-22 03:29 | 24.80490 | 102.70570 | 10593 ft | 325 kts | 63° |
| 2026-04-22 03:29 | 24.81533 | 102.72761 | 10606 ft | 322 kts | 56° |
| 2026-04-22 03:30 | 24.82804 | 102.74786 | 10639 ft | 321 kts | 49° |
| 2026-04-22 03:30 | 24.84268 | 102.76612 | 10672 ft | 318 kts | 41° |
| 2026-04-22 03:30 | 24.85931 | 102.78233 | 10695 ft | 317 kts | 33° |
| 2026-04-22 03:30 | 24.87722 | 102.79591 | 10691 ft | 314 kts | 26° |
| 2026-04-22 03:31 | 24.89610 | 102.80680 | 10725 ft | 312 kts | 19° |
| 2026-04-22 03:31 | 24.91642 | 102.81521 | 10752 ft | 304 kts | 11° |
| 2026-04-22 03:31 | 24.93677 | 102.82062 | 10752 ft | 303 kts | 4° |
| 2026-04-22 03:31 | 24.95759 | 102.82316 | 10787 ft | 297 kts | 356° |
| 2026-04-22 03:32 | 24.97797 | 102.82277 | 10833 ft | 296 kts | 349° |
| 2026-04-22 03:32 | 24.99823 | 102.81946 | 10850 ft | 288 kts | 341° |
| 2026-04-22 03:32 | 25.01718 | 102.81341 | 10884 ft | 288 kts | 334° |
| 2026-04-22 03:32 | 25.03553 | 102.80438 | 10898 ft | 284 kts | 327° |
| 2026-04-22 03:33 | 25.05217 | 102.79291 | 10923 ft | 285 kts | 319° |
| 2026-04-22 03:33 | 25.06716 | 102.77916 | 10944 ft | 276 kts | 312° |
| 2026-04-22 03:33 | 25.08011 | 102.76356 | 10937 ft | 275 kts | 304° |
| 2026-04-22 03:33 | 25.09091 | 102.74628 | 10953 ft | 274 kts | 297° |
| 2026-04-22 03:34 | 25.09929 | 102.72755 | 10977 ft | 274 kts | 289° |
| 2026-04-22 03:34 | 25.10495 | 102.70803 | 11008 ft | 271 kts | 282° |
| 2026-04-22 03:34 | 25.10797 | 102.68749 | 11008 ft | 272 kts | 274° |
| 2026-04-22 03:34 | 25.10817 | 102.66657 | 11008 ft | 272 kts | 266° |
| 2026-04-22 03:35 | 25.10565 | 102.64592 | 11036 ft | 273 kts | 259° |
| 2026-04-22 03:35 | 25.10053 | 102.62605 | 11048 ft | 272 kts | 252° |
| 2026-04-22 03:35 | 25.09264 | 102.60696 | 11104 ft | 274 kts | 244° |
| 2026-04-22 03:35 | 25.08233 | 102.58946 | 11136 ft | 274 kts | 236° |
| 2026-04-22 03:36 | 25.06944 | 102.57349 | 11173 ft | 280 kts | 228° |
| 2026-04-22 03:36 | 25.05467 | 102.55977 | 11217 ft | 282 kts | 220° |
| 2026-04-22 03:36 | 25.03772 | 102.54811 | 11241 ft | 283 kts | 213° |
| 2026-04-22 03:36 | 25.01974 | 102.53929 | 11261 ft | 287 kts | 205° |
| 2026-04-22 03:37 | 25.00036 | 102.53310 | 11303 ft | 291 kts | 198° |
| 2026-04-22 03:37 | 24.97987 | 102.52969 | 11312 ft | 296 kts | 191° |
| 2026-04-22 03:37 | 24.95932 | 102.52922 | 11323 ft | 299 kts | 183° |
| 2026-04-22 03:37 | 24.93858 | 102.53175 | 11345 ft | 306 kts | 175° |
| 2026-04-22 03:38 | 24.91762 | 102.53746 | 11375 ft | 309 kts | 167° |
| 2026-04-22 03:38 | 24.89744 | 102.54609 | 11373 ft | 310 kts | 160° |
| 2026-04-22 03:38 | 24.87840 | 102.55737 | 11383 ft | 315 kts | 152° |
| 2026-04-22 03:38 | 24.86039 | 102.57137 | 11399 ft | 318 kts | 145° |
| 2026-04-22 03:39 | 24.84371 | 102.58799 | 11429 ft | 321 kts | 138° |
| 2026-04-22 03:39 | 24.82915 | 102.60634 | 11434 ft | 322 kts | 130° |
| 2026-04-22 03:39 | 24.81633 | 102.62706 | 11435 ft | 325 kts | 123° |
| 2026-04-22 03:39 | 24.80605 | 102.64920 | 11453 ft | 329 kts | 115° |
| 2026-04-22 03:40 | 24.79833 | 102.67263 | 11472 ft | 330 kts | 108° |
| 2026-04-22 03:40 | 24.79321 | 102.69720 | 11500 ft | 330 kts | 100° |
| 2026-04-22 03:40 | 24.79086 | 102.72237 | 11500 ft | 329 kts | 92° |
| 2026-04-22 03:40 | 24.79129 | 102.74752 | 11504 ft | 330 kts | 85° |
| 2026-04-22 03:41 | 24.79448 | 102.77274 | 11545 ft | 330 kts | 77° |
| 2026-04-22 03:41 | 24.80031 | 102.79687 | 11595 ft | 330 kts | 70° |
| 2026-04-22 03:41 | 24.80881 | 102.82014 | 11620 ft | 328 kts | 62° |
| 2026-04-22 03:41 | 24.81983 | 102.84211 | 11647 ft | 325 kts | 54° |
| 2026-04-22 03:42 | 24.83321 | 102.86243 | 11657 ft | 325 kts | 46° |
| 2026-04-22 03:42 | 24.84842 | 102.88039 | 11703 ft | 323 kts | 39° |
| 2026-04-22 03:42 | 24.86551 | 102.89619 | 11732 ft | 317 kts | 31° |
| 2026-04-22 03:42 | 24.88387 | 102.90935 | 11758 ft | 316 kts | 24° |
| 2026-04-22 03:43 | 24.90357 | 102.91999 | 11761 ft | 313 kts | 17° |
| 2026-04-22 03:43 | 24.92410 | 102.92757 | 11797 ft | 308 kts | 8° |
| 2026-04-22 03:43 | 24.94517 | 102.93188 | 11845 ft | 301 kts | 0° |
| 2026-04-22 03:43 | 24.96608 | 102.93281 | 11846 ft | 301 kts | 352° |
| 2026-04-22 03:44 | 24.98651 | 102.93039 | 11888 ft | 296 kts | 343° |
| 2026-04-22 03:44 | 25.00631 | 102.92483 | 11930 ft | 290 kts | 335° |
| 2026-04-22 03:44 | 25.02506 | 102.91643 | 11940 ft | 288 kts | 328° |
| 2026-04-22 03:44 | 25.04234 | 102.90538 | 11978 ft | 287 kts | 321° |
| 2026-04-22 03:45 | 25.05776 | 102.89186 | 12066 ft | 281 kts | 313° |
| 2026-04-22 03:45 | 25.07097 | 102.87601 | 12085 ft | 281 kts | 304° |
| 2026-04-22 03:45 | 25.08163 | 102.85817 | 12156 ft | 276 kts | 296° |
| 2026-04-22 03:45 | 25.08959 | 102.83894 | 12175 ft | 276 kts | 288° |
| 2026-04-22 03:46 | 25.09478 | 102.81844 | 12222 ft | 275 kts | 280° |
| 2026-04-22 03:46 | 25.09706 | 102.79771 | 12278 ft | 276 kts | 272° |
| 2026-04-22 03:46 | 25.09653 | 102.77668 | 12304 ft | 274 kts | 265° |
| 2026-04-22 03:46 | 25.09325 | 102.75597 | 12308 ft | 275 kts | 257° |
| 2026-04-22 03:47 | 25.08734 | 102.73583 | 12314 ft | 278 kts | 250° |
| 2026-04-22 03:47 | 25.07888 | 102.71674 | 12350 ft | 280 kts | 243° |
| 2026-04-22 03:47 | 25.06785 | 102.69881 | 12372 ft | 283 kts | 235° |
| 2026-04-22 03:47 | 25.05463 | 102.68263 | 12411 ft | 283 kts | 229° |
| 2026-04-22 03:48 | 25.03972 | 102.66838 | 12441 ft | 287 kts | 221° |
| 2026-04-22 03:48 | 25.02298 | 102.65611 | 12491 ft | 290 kts | 215° |
| 2026-04-22 03:48 | 25.00446 | 102.64617 | 12549 ft | 294 kts | 207° |
| 2026-04-22 03:48 | 24.98511 | 102.63913 | 12623 ft | 300 kts | 200° |
| 2026-04-22 03:49 | 24.96423 | 102.63483 | 12650 ft | 301 kts | 192° |
| 2026-04-22 03:49 | 24.94321 | 102.63361 | 12688 ft | 306 kts | 185° |
| 2026-04-22 03:49 | 24.92171 | 102.63544 | 12719 ft | 312 kts | 177° |
| 2026-04-22 03:49 | 24.90040 | 102.64043 | 12786 ft | 318 kts | 169° |
| 2026-04-22 03:50 | 24.87932 | 102.64853 | 12805 ft | 319 kts | 162° |
| 2026-04-22 03:50 | 24.85938 | 102.65936 | 12831 ft | 322 kts | 154° |
| 2026-04-22 03:50 | 24.84052 | 102.67298 | 12850 ft | 327 kts | 147° |
| 2026-04-22 03:50 | 24.82302 | 102.68933 | 12883 ft | 329 kts | 140° |
| 2026-04-22 03:51 | 24.80737 | 102.70805 | 12899 ft | 330 kts | 132° |
| 2026-04-22 03:51 | 24.79397 | 102.72865 | 12892 ft | 335 kts | 124° |
| 2026-04-22 03:51 | 24.78285 | 102.75116 | 12937 ft | 336 kts | 117° |
| 2026-04-22 03:51 | 24.77432 | 102.77490 | 12976 ft | 337 kts | 109° |
| 2026-04-22 03:52 | 24.76838 | 102.80003 | 13020 ft | 337 kts | 101° |
| 2026-04-22 03:52 | 24.76528 | 102.82547 | 13061 ft | 340 kts | 94° |
| 2026-04-22 03:52 | 24.76502 | 102.85142 | 13110 ft | 336 kts | 86° |
| 2026-04-22 03:52 | 24.76760 | 102.87688 | 13138 ft | 336 kts | 78° |
| 2026-04-22 03:53 | 24.77308 | 102.90221 | 13164 ft | 338 kts | 71° |
| 2026-04-22 03:53 | 24.78109 | 102.92599 | 13223 ft | 335 kts | 63° |
| 2026-04-22 03:53 | 24.79175 | 102.94869 | 13260 ft | 333 kts | 55° |
| 2026-04-22 03:53 | 24.80492 | 102.96976 | 13301 ft | 332 kts | 48° |
| 2026-04-22 03:54 | 24.82009 | 102.98852 | 13358 ft | 327 kts | 39° |
| 2026-04-22 03:54 | 24.83731 | 103.00501 | 13412 ft | 324 kts | 32° |
| 2026-04-22 03:54 | 24.85593 | 103.01874 | 13433 ft | 322 kts | 25° |
| 2026-04-22 03:54 | 24.87589 | 103.02976 | 13467 ft | 319 kts | 17° |
| 2026-04-22 03:55 | 24.89652 | 103.03767 | 13496 ft | 311 kts | 9° |
| 2026-04-22 03:55 | 24.91753 | 103.04240 | 13529 ft | 309 kts | 2° |
| 2026-04-22 03:55 | 24.93887 | 103.04409 | 13558 ft | 304 kts | 354° |
| 2026-04-22 03:55 | 24.95989 | 103.04303 | 13615 ft | 301 kts | 348° |
| 2026-04-22 03:56 | 24.98074 | 103.03936 | 13676 ft | 298 kts | 342° |
| 2026-04-22 03:56 | 25.00044 | 103.03336 | 13725 ft | 295 kts | 335° |
| 2026-04-22 03:56 | 25.01951 | 103.02480 | 13781 ft | 293 kts | 329° |
| 2026-04-22 03:56 | 25.03725 | 103.01375 | 13830 ft | 291 kts | 322° |
| 2026-04-22 03:57 | 25.05321 | 103.00055 | 13884 ft | 287 kts | 315° |
| 2026-04-22 03:57 | 25.06756 | 102.98520 | 13925 ft | 286 kts | 308° |
| 2026-04-22 03:57 | 25.07983 | 102.96809 | 13978 ft | 284 kts | 301° |
| 2026-04-22 03:57 | 25.08996 | 102.94925 | 14015 ft | 280 kts | 294° |
| 2026-04-22 03:58 | 25.09743 | 102.92933 | 14043 ft | 281 kts | 286° |
| 2026-04-22 03:58 | 25.10211 | 102.90867 | 14073 ft | 280 kts | 278° |
| 2026-04-22 03:58 | 25.10398 | 102.88733 | 14118 ft | 282 kts | 271° |
| 2026-04-22 03:58 | 25.10276 | 102.86571 | 14160 ft | 282 kts | 263° |
| 2026-04-22 03:59 | 25.09824 | 102.84458 | 14182 ft | 285 kts | 254° |
| 2026-04-22 03:59 | 25.09044 | 102.82437 | 14195 ft | 286 kts | 245° |
| 2026-04-22 03:59 | 25.07980 | 102.80582 | 14199 ft | 289 kts | 237° |
| 2026-04-22 03:59 | 25.06639 | 102.78912 | 14217 ft | 293 kts | 228° |
| 2026-04-22 04:00 | 25.05055 | 102.77468 | 14250 ft | 297 kts | 220° |
| 2026-04-22 04:00 | 25.03269 | 102.76303 | 14284 ft | 301 kts | 211° |
| 2026-04-22 04:00 | 25.01335 | 102.75432 | 14305 ft | 306 kts | 204° |
| 2026-04-22 04:00 | 24.99266 | 102.74844 | 14317 ft | 308 kts | 196° |
| 2026-04-22 04:01 | 24.97114 | 102.74582 | 14339 ft | 314 kts | 188° |
| 2026-04-22 04:01 | 24.94908 | 102.74660 | 14340 ft | 317 kts | 180° |
| 2026-04-22 04:01 | 24.92715 | 102.75091 | 14341 ft | 323 kts | 171° |
| 2026-04-22 04:01 | 24.90573 | 102.75865 | 14392 ft | 327 kts | 163° |
| 2026-04-22 04:02 | 24.88493 | 102.76988 | 14434 ft | 331 kts | 155° |
| 2026-04-22 04:02 | 24.86574 | 102.78416 | 14495 ft | 335 kts | 146° |
| 2026-04-22 04:02 | 24.84834 | 102.80131 | 14520 ft | 338 kts | 138° |
| 2026-04-22 04:02 | 24.83287 | 102.82129 | 14608 ft | 344 kts | 129° |
| 2026-04-22 04:03 | 24.81982 | 102.84351 | 14655 ft | 344 kts | 121° |
| 2026-04-22 04:03 | 24.80957 | 102.86712 | 14700 ft | 347 kts | 113° |
| 2026-04-22 04:03 | 24.80199 | 102.89256 | 14747 ft | 347 kts | 105° |
| 2026-04-22 04:03 | 24.79748 | 102.91864 | 14791 ft | 350 kts | 97° |
| 2026-04-22 04:04 | 24.79590 | 102.94524 | 14844 ft | 348 kts | 89° |
| 2026-04-22 04:04 | 24.79728 | 102.97181 | 14873 ft | 347 kts | 82° |
| 2026-04-22 04:04 | 24.80165 | 102.99789 | 14922 ft | 347 kts | 74° |
| 2026-04-22 04:04 | 24.80888 | 103.02325 | 14961 ft | 348 kts | 66° |
| 2026-04-22 04:05 | 24.81873 | 103.04742 | 14990 ft | 345 kts | 59° |
| 2026-04-22 04:05 | 24.83097 | 103.06995 | 15016 ft | 344 kts | 52° |
| 2026-04-22 04:05 | 24.84555 | 103.09059 | 15063 ft | 341 kts | 44° |
| 2026-04-22 04:05 | 24.86237 | 103.10913 | 15098 ft | 338 kts | 36° |
| 2026-04-22 04:06 | 24.88083 | 103.12485 | 15134 ft | 337 kts | 28° |
| 2026-04-22 04:06 | 24.90073 | 103.13773 | 15186 ft | 330 kts | 21° |
| 2026-04-22 04:06 | 24.92197 | 103.14761 | 15204 ft | 327 kts | 13° |
| 2026-04-22 04:06 | 24.94397 | 103.15435 | 15266 ft | 324 kts | 6° |
| 2026-04-22 04:07 | 24.96600 | 103.15796 | 15338 ft | 317 kts | 358° |
| 2026-04-22 04:07 | 24.98798 | 103.15839 | 15378 ft | 314 kts | 351° |
| 2026-04-22 04:07 | 25.00963 | 103.15594 | 15398 ft | 311 kts | 344° |
| 2026-04-22 04:07 | 25.03058 | 103.15075 | 15458 ft | 306 kts | 338° |
| 2026-04-22 04:08 | 25.05071 | 103.14299 | 15507 ft | 305 kts | 331° |
| 2026-04-22 04:08 | 25.06986 | 103.13281 | 15574 ft | 302 kts | 325° |
| 2026-04-22 04:08 | 25.08728 | 103.12048 | 15628 ft | 297 kts | 318° |
| 2026-04-22 04:08 | 25.10320 | 103.10574 | 15648 ft | 296 kts | 311° |
| 2026-04-22 04:09 | 25.11691 | 103.08914 | 15721 ft | 294 kts | 304° |
| 2026-04-22 04:09 | 25.12859 | 103.07056 | 15763 ft | 291 kts | 297° |
| 2026-04-22 04:09 | 25.13763 | 103.05083 | 15794 ft | 289 kts | 290° |
| 2026-04-22 04:09 | 25.14418 | 103.02982 | 15836 ft | 288 kts | 283° |
| 2026-04-22 04:10 | 25.14797 | 103.00809 | 15901 ft | 287 kts | 276° |
| 2026-04-22 04:10 | 25.14883 | 102.98605 | 15976 ft | 288 kts | 268° |
| 2026-04-22 04:10 | 25.14668 | 102.96432 | 16073 ft | 288 kts | 261° |
| 2026-04-22 04:10 | 25.14149 | 102.94270 | 16144 ft | 290 kts | 253° |
| 2026-04-22 04:11 | 25.13357 | 102.92236 | 16233 ft | 292 kts | 245° |
| 2026-04-22 04:11 | 25.12296 | 102.90315 | 16328 ft | 294 kts | 238° |
| 2026-04-22 04:11 | 25.10998 | 102.88544 | 16418 ft | 296 kts | 232° |
| 2026-04-22 04:11 | 25.09521 | 102.86947 | 16458 ft | 299 kts | 226° |
| 2026-04-22 04:12 | 25.07890 | 102.85545 | 16484 ft | 302 kts | 220° |
| 2026-04-22 04:12 | 25.06085 | 102.84328 | 16496 ft | 304 kts | 214° |
| 2026-04-22 04:12 | 25.04134 | 102.83338 | 16527 ft | 309 kts | 207° |
| 2026-04-22 04:12 | 25.02068 | 102.82616 | 16598 ft | 315 kts | 200° |
| 2026-04-22 04:13 | 24.99881 | 102.82191 | 16611 ft | 320 kts | 192° |
| 2026-04-22 04:13 | 24.97623 | 102.82075 | 16663 ft | 327 kts | 185° |
| 2026-04-22 04:13 | 24.95357 | 102.82265 | 16687 ft | 330 kts | 178° |
| 2026-04-22 04:13 | 24.93069 | 102.82783 | 16703 ft | 336 kts | 171° |
| 2026-04-22 04:14 | 24.90865 | 102.83586 | 16752 ft | 339 kts | 164° |
| 2026-04-22 04:14 | 24.88705 | 102.84688 | 16798 ft | 342 kts | 157° |
| 2026-04-22 04:14 | 24.86677 | 102.86076 | 16851 ft | 348 kts | 149° |
| 2026-04-22 04:14 | 24.84785 | 102.87791 | 16928 ft | 352 kts | 141° |
| 2026-04-22 04:15 | 24.83108 | 102.89758 | 17019 ft | 355 kts | 133° |
| 2026-04-22 04:15 | 24.81656 | 102.91969 | 17120 ft | 359 kts | 125° |
| 2026-04-22 04:15 | 24.80447 | 102.94413 | 17205 ft | 363 kts | 117° |
| 2026-04-22 04:15 | 24.79535 | 102.96988 | 17324 ft | 364 kts | 109° |
| 2026-04-22 04:16 | 24.78911 | 102.99696 | 17359 ft | 366 kts | 101° |
| 2026-04-22 04:16 | 24.78585 | 103.05253 | 17489 ft | 369 kts | 86° |
| 2026-04-22 04:16 | 24.78885 | 103.08055 | 17535 ft | 369 kts | 78° |
| 2026-04-22 04:17 | 24.79499 | 103.10815 | 17605 ft | 368 kts | 70° |
| 2026-04-22 04:17 | 24.80399 | 103.13417 | 17677 ft | 366 kts | 62° |
| 2026-04-22 04:17 | 24.81581 | 103.15889 | 17744 ft | 364 kts | 55° |
| 2026-04-22 04:17 | 24.83018 | 103.18180 | 17833 ft | 362 kts | 47° |
| 2026-04-22 04:18 | 24.84697 | 103.20263 | 17902 ft | 358 kts | 39° |
| 2026-04-22 04:18 | 24.86558 | 103.22060 | 17947 ft | 353 kts | 31° |
| 2026-04-22 04:18 | 24.88586 | 103.23556 | 17984 ft | 350 kts | 23° |
| 2026-04-22 04:18 | 24.90777 | 103.24744 | 18045 ft | 345 kts | 15° |
| 2026-04-22 04:19 | 24.93020 | 103.25569 | 18102 ft | 342 kts | 7° |
| 2026-04-22 04:19 | 24.95343 | 103.26048 | 18166 ft | 336 kts | 359° |
| 2026-04-22 04:19 | 24.97656 | 103.26164 | 18236 ft | 331 kts | 351° |
| 2026-04-22 04:19 | 24.99933 | 103.25933 | 18336 ft | 324 kts | 343° |
| 2026-04-22 04:20 | 25.02116 | 103.25369 | 18419 ft | 319 kts | 335° |
| 2026-04-22 04:20 | 25.04166 | 103.24499 | 18495 ft | 314 kts | 328° |
| 2026-04-22 04:20 | 25.06060 | 103.23331 | 18563 ft | 309 kts | 320° |
| 2026-04-22 04:20 | 25.07745 | 103.21894 | 18639 ft | 305 kts | 312° |
| 2026-04-22 04:21 | 25.09194 | 103.20212 | 18730 ft | 300 kts | 304° |
| 2026-04-22 04:21 | 25.10376 | 103.18317 | 18779 ft | 298 kts | 296° |
| 2026-04-22 04:21 | 25.11259 | 103.16242 | 18837 ft | 296 kts | 287° |
| 2026-04-22 04:21 | 25.11805 | 103.14082 | 18922 ft | 293 kts | 279° |
| 2026-04-22 04:22 | 25.12019 | 103.11835 | 18983 ft | 294 kts | 270° |
| 2026-04-22 04:22 | 25.11871 | 103.09576 | 19102 ft | 294 kts | 262° |
| 2026-04-22 04:22 | 25.11403 | 103.07380 | 19164 ft | 297 kts | 254° |
| 2026-04-22 04:22 | 25.10617 | 103.05276 | 19254 ft | 299 kts | 246° |
| 2026-04-22 04:23 | 25.09512 | 103.03317 | 19336 ft | 301 kts | 238° |
| 2026-04-22 04:23 | 25.08103 | 103.01558 | 19388 ft | 307 kts | 229° |
| 2026-04-22 04:23 | 25.06431 | 103.00047 | 19449 ft | 314 kts | 220° |
| 2026-04-22 04:23 | 25.04546 | 102.98840 | 19550 ft | 317 kts | 212° |
| 2026-04-22 04:24 | 25.02456 | 102.97971 | 19635 ft | 326 kts | 203° |
| 2026-04-22 04:24 | 25.00218 | 102.97488 | 19723 ft | 333 kts | 194° |
| 2026-04-22 04:24 | 24.97841 | 102.97417 | 19848 ft | 341 kts | 185° |
| 2026-04-22 04:24 | 24.95467 | 102.97743 | 20003 ft | 349 kts | 176° |
| 2026-04-22 04:25 | 24.93108 | 102.98445 | 20115 ft | 357 kts | 168° |
| 2026-04-22 04:25 | 24.90767 | 102.99506 | 20188 ft | 364 kts | 161° |
| 2026-04-22 04:25 | 24.88534 | 103.00901 | 20248 ft | 368 kts | 153° |
| 2026-04-22 04:25 | 24.86493 | 103.02583 | 20345 ft | 375 kts | 145° |
| 2026-04-22 04:26 | 24.84601 | 103.04587 | 20436 ft | 379 kts | 137° |
| 2026-04-22 04:26 | 24.82939 | 103.06849 | 20489 ft | 382 kts | 129° |
| 2026-04-22 04:26 | 24.81516 | 103.09366 | 20527 ft | 387 kts | 121° |
| 2026-04-22 04:26 | 24.80391 | 103.12054 | 20591 ft | 390 kts | 113° |
| 2026-04-22 04:27 | 24.79565 | 103.14932 | 20657 ft | 393 kts | 105° |
| 2026-04-22 04:27 | 24.79075 | 103.17885 | 20711 ft | 390 kts | 97° |
| 2026-04-22 04:27 | 24.78936 | 103.20767 | 20762 ft | 367 kts | 89° |
| 2026-04-22 04:27 | 24.79122 | 103.23539 | 20383 ft | 361 kts | 81° |
| 2026-04-22 04:28 | 24.79615 | 103.26260 | 19416 ft | 373 kts | 73° |
| 2026-04-22 04:28 | 24.80431 | 103.28985 | 18538 ft | 379 kts | 65° |
| 2026-04-22 04:28 | 24.81552 | 103.31599 | 18247 ft | 363 kts | 57° |
| 2026-04-22 04:28 | 24.82845 | 103.33883 | 18154 ft | 343 kts | 50° |
| 2026-04-22 04:29 | 24.84308 | 103.35908 | 17631 ft | 339 kts | 43° |
| 2026-04-22 04:29 | 24.85997 | 103.37743 | 16729 ft | 349 kts | 36° |
| 2026-04-22 04:29 | 24.87928 | 103.39387 | 15957 ft | 350 kts | 28° |
| 2026-04-22 04:29 | 24.89967 | 103.40733 | 15602 ft | 336 kts | 21° |
| 2026-04-22 04:30 | 24.92048 | 103.41780 | 15373 ft | 319 kts | 15° |
| 2026-04-22 04:30 | 24.94126 | 103.42528 | 14840 ft | 315 kts | 8° |
| 2026-04-22 04:30 | 24.96296 | 103.43012 | 14025 ft | 320 kts | 1° |
| 2026-04-22 04:30 | 24.98513 | 103.43210 | 13297 ft | 320 kts | 355° |
| 2026-04-22 04:31 | 25.00701 | 103.43132 | 12856 ft | 309 kts | 349° |
| 2026-04-22 04:31 | 25.02787 | 103.42810 | 12526 ft | 296 kts | 343° |
| 2026-04-22 04:31 | 25.04784 | 103.42250 | 11997 ft | 292 kts | 336° |
| 2026-04-22 04:31 | 25.06678 | 103.41464 | 11268 ft | 295 kts | 330° |
| 2026-04-22 04:32 | 25.08511 | 103.40439 | 10569 ft | 296 kts | 324° |
| 2026-04-22 04:32 | 25.10224 | 103.39214 | 10066 ft | 289 kts | 319° |
| 2026-04-22 04:32 | 25.11779 | 103.37841 | 9658 ft | 280 kts | 313° |
| 2026-04-22 04:32 | 25.13148 | 103.36351 | 9124 ft | 276 kts | 308° |
| 2026-04-22 04:33 | 25.14352 | 103.34724 | 8421 ft | 280 kts | 302° |
| 2026-04-22 04:33 | 25.15420 | 103.32911 | 7655 ft | 286 kts | 297° |
| 2026-04-22 04:33 | 25.16315 | 103.30938 | 7015 ft | 286 kts | 291° |
| 2026-04-22 04:33 | 25.16952 | 103.28905 | 6490 ft | 282 kts | 283° |
| 2026-04-22 04:34 | 25.17192 | 103.27811 | 6204 ft | 0 kts | 279° |
| 2026-04-22 04:34 | 25.17193 | 103.27812 | 6204 ft | 0 kts | 282° |
| 2026-04-22 04:36 | 25.17194 | 103.27812 | 6203 ft | 0 kts | 284° |
| 2026-04-22 04:36 | 25.17195 | 103.27813 | 6202 ft | 0 kts | 287° |
| 2026-04-22 04:37 | 25.17196 | 103.27813 | 6201 ft | 0 kts | 289° |
| 2026-04-22 04:38 | 25.17197 | 103.27813 | 6201 ft | 0 kts | 291° |
| 2026-04-22 04:39 | 25.17197 | 103.27814 | 6201 ft | 0 kts | 291° |
| 2026-04-22 04:40 | 25.17198 | 103.27814 | 6200 ft | 0 kts | 294° |
| 2026-04-22 04:41 | 25.17199 | 103.27814 | 6200 ft | 0 kts | 295° |
| 2026-04-22 04:42 | 25.17200 | 103.27814 | 6200 ft | 0 kts | 298° |
| 2026-04-22 04:42 | 25.17200 | 103.27815 | 6200 ft | 0 kts | 300° |
| 2026-04-22 04:43 | 25.17201 | 103.27815 | 6200 ft | 0 kts | 301° |
| 2026-04-22 04:44 | 25.17202 | 103.27815 | 6199 ft | 0 kts | 303° |
| 2026-04-22 04:44 | 25.17202 | 103.27816 | 6199 ft | 0 kts | 303° |
| 2026-04-22 04:45 | 25.17203 | 103.27816 | 6199 ft | 0 kts | 305° |
| 2026-04-22 04:46 | 25.17203 | 103.27817 | 6199 ft | 0 kts | 307° |
| 2026-04-22 04:46 | 25.17204 | 103.27817 | 6199 ft | 0 kts | 307° |
| 2026-04-22 04:47 | 25.17205 | 103.27817 | 6198 ft | 0 kts | 310° |
| 2026-04-22 04:48 | 25.17205 | 103.27818 | 6198 ft | 0 kts | 311° |
| 2026-04-22 04:48 | 25.17206 | 103.27818 | 6198 ft | 0 kts | 312° |
| 2026-04-22 04:49 | 25.17207 | 103.27818 | 6198 ft | 0 kts | 314° |
| 2026-04-22 04:51 | 25.17208 | 103.27819 | 6198 ft | 0 kts | 316° |
| 2026-04-22 04:52 | 25.17209 | 103.27819 | 6199 ft | 0 kts | 318° |
| 2026-04-22 04:53 | 25.17209 | 103.27820 | 6199 ft | 0 kts | 320° |
| 2026-04-22 04:53 | 25.17210 | 103.27820 | 6198 ft | 0 kts | 321° |
| 2026-04-22 04:54 | 25.17211 | 103.27820 | 6198 ft | 0 kts | 322° |
| 2026-04-22 04:54 | 25.17211 | 103.27821 | 6198 ft | 0 kts | 323° |
| 2026-04-22 04:55 | 25.17212 | 103.27821 | 6198 ft | 0 kts | 324° |
| 2026-04-22 04:57 | 25.17213 | 103.27821 | 6197 ft | 0 kts | 324° |
| 2026-04-22 04:58 | 25.17213 | 103.27822 | 6197 ft | 0 kts | 324° |
| 2026-04-22 05:01 | 25.17213 | 103.27823 | 6196 ft | 0 kts | 321° |
| 2026-04-22 05:01 | 25.17214 | 103.27823 | 6196 ft | 0 kts | 321° |
| 2026-04-22 05:03 | 25.17214 | 103.27824 | 6196 ft | 0 kts | 319° |
| 2026-04-22 05:07 | 25.17215 | 103.27824 | 6196 ft | 0 kts | 317° |
| 2026-04-22 05:07 | 25.17215 | 103.27825 | 6196 ft | 0 kts | 317° |
| 2026-04-22 05:09 | 25.17215 | 103.27826 | 6195 ft | 0 kts | 317° |
| 2026-04-22 05:11 | 25.17215 | 103.27827 | 6195 ft | 0 kts | 317° |